<?xml version="1.0" encoding="UTF-8"?>
<gpx version="1.1"
creator="Created by nogago(R) Tracks, available for Android and BlackBerry. Visit http://www.nogago.com to learn more!"
xmlns="http://www.topografix.com/GPX/1/1"
xmlns:topografix="http://www.topografix.com/GPX/Private/TopoGrafix/0/1"
xmlns:n="http://www.nogago.com/tracks"
xmlns:xsi="http://www.w3.org/2001/XMLSchema-instance"
xsi:schemaLocation="http://www.topografix.com/GPX/1/1 http://www.topografix.com/GPX/1/1/gpx.xsd http://www.topografix.com/GPX/Private/TopoGrafix/0/1 http://www.topografix.com/GPX/Private/TopoGrafix/0/1/topografix.xsd">
<metadata>
<name><![CDATA[Sahrbachtal - Extratour AhrSteig on GPSies.com]]></name>
<desc><![CDATA[]]></desc>
<extensions>
<n:total_distance km="18.54" mi="11.5"/>
<n:total_time>1:51:03</n:total_time>
<n:moving_time>1:51:03</n:moving_time>
<n:average_speed km="10.02" mi="6.2"/>
<n:average_moving_speed km="10.02" mi="6.2"/>
<n:max_speed km="18.92" mi="11.8"/>
<n:average_pace km="9.6" mi="9.6"/>
<n:average_moving_pace km="5.99" mi="9.6"/>
<n:fastest_pace km="3.17" mi="5.1"/>
<n:max_elevation km="445" mi="1460"/>
<n:min_elevation km="176" mi="578"/>
<n:elevation_gain km="403" mi="1323"/>
<n:max_grade>21</n:max_grade>
<n:min_grade>-18</n:min_grade>
<n:recorded_on>01.01.2010 1:00</n:recorded_on>

</extensions>
</metadata>
<trk>
<name><![CDATA[Sahrbachtal - Extratour AhrSteig on GPSies.com]]></name>
<desc><![CDATA[]]></desc>
<type><![CDATA[]]></type>
<extensions><topografix:color>c0c0c0</topografix:color></extensions>
<trkseg>
<trkpt lat="50.509462" lon="6.973075">
<ele>179</ele>
<time>2010-01-01T00:00:00.000Z</time>
</trkpt>
<trkpt lat="50.509436" lon="6.973075">
<ele>179</ele>
<time>2010-01-01T00:00:01.000Z</time>
</trkpt>
<trkpt lat="50.509395" lon="6.973072">
<ele>179</ele>
<time>2010-01-01T00:00:02.000Z</time>
</trkpt>
<trkpt lat="50.509349" lon="6.973067">
<ele>179</ele>
<time>2010-01-01T00:00:04.000Z</time>
</trkpt>
<trkpt lat="50.509302" lon="6.973048">
<ele>179</ele>
<time>2010-01-01T00:00:06.000Z</time>
</trkpt>
<trkpt lat="50.509245" lon="6.972992">
<ele>179</ele>
<time>2010-01-01T00:00:09.000Z</time>
</trkpt>
<trkpt lat="50.509205" lon="6.972933">
<ele>179</ele>
<time>2010-01-01T00:00:11.000Z</time>
</trkpt>
<trkpt lat="50.509151" lon="6.972836">
<ele>180</ele>
<time>2010-01-01T00:00:14.000Z</time>
</trkpt>
<trkpt lat="50.509009" lon="6.972454">
<ele>185</ele>
<time>2010-01-01T00:00:25.000Z</time>
</trkpt>
<trkpt lat="50.508965" lon="6.972524">
<ele>187</ele>
<time>2010-01-01T00:00:28.000Z</time>
</trkpt>
<trkpt lat="50.508956" lon="6.972511">
<ele>187</ele>
<time>2010-01-01T00:00:28.000Z</time>
</trkpt>
<trkpt lat="50.508987" lon="6.972318">
<ele>186</ele>
<time>2010-01-01T00:00:33.000Z</time>
</trkpt>
<trkpt lat="50.508937" lon="6.972083">
<ele>188</ele>
<time>2010-01-01T00:00:40.000Z</time>
</trkpt>
<trkpt lat="50.50888" lon="6.97195">
<ele>191</ele>
<time>2010-01-01T00:00:44.000Z</time>
</trkpt>
<trkpt lat="50.508864" lon="6.971869">
<ele>191</ele>
<time>2010-01-01T00:00:46.000Z</time>
</trkpt>
<trkpt lat="50.508738" lon="6.971515">
<ele>197</ele>
<time>2010-01-01T00:00:56.000Z</time>
</trkpt>
<trkpt lat="50.508582" lon="6.971177">
<ele>203</ele>
<time>2010-01-01T00:01:07.000Z</time>
</trkpt>
<trkpt lat="50.508556" lon="6.971054">
<ele>204</ele>
<time>2010-01-01T00:01:10.000Z</time>
</trkpt>
<trkpt lat="50.508479" lon="6.97096">
<ele>207</ele>
<time>2010-01-01T00:01:14.000Z</time>
</trkpt>
<trkpt lat="50.508437" lon="6.97087">
<ele>208</ele>
<time>2010-01-01T00:01:17.000Z</time>
</trkpt>
<trkpt lat="50.508464" lon="6.970856">
<ele>207</ele>
<time>2010-01-01T00:01:18.000Z</time>
</trkpt>
<trkpt lat="50.508536" lon="6.970646">
<ele>204</ele>
<time>2010-01-01T00:01:24.000Z</time>
</trkpt>
<trkpt lat="50.508479" lon="6.970515">
<ele>206</ele>
<time>2010-01-01T00:01:28.000Z</time>
</trkpt>
<trkpt lat="50.508488" lon="6.970478">
<ele>205</ele>
<time>2010-01-01T00:01:29.000Z</time>
</trkpt>
<trkpt lat="50.508433" lon="6.970335">
<ele>207</ele>
<time>2010-01-01T00:01:33.000Z</time>
</trkpt>
<trkpt lat="50.508433" lon="6.970263">
<ele>206</ele>
<time>2010-01-01T00:01:35.000Z</time>
</trkpt>
<trkpt lat="50.508484" lon="6.970138">
<ele>205</ele>
<time>2010-01-01T00:01:39.000Z</time>
</trkpt>
<trkpt lat="50.508472" lon="6.970134">
<ele>205</ele>
<time>2010-01-01T00:01:40.000Z</time>
</trkpt>
<trkpt lat="50.508488" lon="6.97005">
<ele>205</ele>
<time>2010-01-01T00:01:42.000Z</time>
</trkpt>
<trkpt lat="50.508548" lon="6.969917">
<ele>203</ele>
<time>2010-01-01T00:01:46.000Z</time>
</trkpt>
<trkpt lat="50.508533" lon="6.969836">
<ele>204</ele>
<time>2010-01-01T00:01:48.000Z</time>
</trkpt>
<trkpt lat="50.508624" lon="6.969706">
<ele>202</ele>
<time>2010-01-01T00:01:53.000Z</time>
</trkpt>
<trkpt lat="50.508659" lon="6.969562">
<ele>202</ele>
<time>2010-01-01T00:01:57.000Z</time>
</trkpt>
<trkpt lat="50.508705" lon="6.969518">
<ele>201</ele>
<time>2010-01-01T00:01:59.000Z</time>
</trkpt>
<trkpt lat="50.508727" lon="6.969444">
<ele>201</ele>
<time>2010-01-01T00:02:01.000Z</time>
</trkpt>
<trkpt lat="50.508671" lon="6.969131">
<ele>203</ele>
<time>2010-01-01T00:02:09.000Z</time>
</trkpt>
<trkpt lat="50.508677" lon="6.969011">
<ele>204</ele>
<time>2010-01-01T00:02:13.000Z</time>
</trkpt>
<trkpt lat="50.508663" lon="6.968885">
<ele>205</ele>
<time>2010-01-01T00:02:16.000Z</time>
</trkpt>
<trkpt lat="50.508727" lon="6.968284">
<ele>206</ele>
<time>2010-01-01T00:02:31.000Z</time>
</trkpt>
<trkpt lat="50.508705" lon="6.968166">
<ele>209</ele>
<time>2010-01-01T00:02:34.000Z</time>
</trkpt>
<trkpt lat="50.508759" lon="6.968114">
<ele>208</ele>
<time>2010-01-01T00:02:37.000Z</time>
</trkpt>
<trkpt lat="50.508639" lon="6.968216">
<ele>210</ele>
<time>2010-01-01T00:02:42.000Z</time>
</trkpt>
<trkpt lat="50.508639" lon="6.968146">
<ele>212</ele>
<time>2010-01-01T00:02:44.000Z</time>
</trkpt>
<trkpt lat="50.508614" lon="6.968129">
<ele>213</ele>
<time>2010-01-01T00:02:45.000Z</time>
</trkpt>
<trkpt lat="50.508712" lon="6.96808">
<ele>210</ele>
<time>2010-01-01T00:02:49.000Z</time>
</trkpt>
<trkpt lat="50.508792" lon="6.967887">
<ele>210</ele>
<time>2010-01-01T00:02:55.000Z</time>
</trkpt>
<trkpt lat="50.508838" lon="6.967721">
<ele>211</ele>
<time>2010-01-01T00:03:00.000Z</time>
</trkpt>
<trkpt lat="50.508971" lon="6.967487">
<ele>208</ele>
<time>2010-01-01T00:03:08.000Z</time>
</trkpt>
<trkpt lat="50.509007" lon="6.967438">
<ele>208</ele>
<time>2010-01-01T00:03:10.000Z</time>
</trkpt>
<trkpt lat="50.509242" lon="6.96722">
<ele>205</ele>
<time>2010-01-01T00:03:21.000Z</time>
</trkpt>
<trkpt lat="50.509372" lon="6.967035">
<ele>209</ele>
<time>2010-01-01T00:03:28.000Z</time>
</trkpt>
<trkpt lat="50.509372" lon="6.96701">
<ele>209</ele>
<time>2010-01-01T00:03:28.000Z</time>
</trkpt>
<trkpt lat="50.509589" lon="6.966983">
<ele>208</ele>
<time>2010-01-01T00:03:37.000Z</time>
</trkpt>
<trkpt lat="50.509631" lon="6.966989">
<ele>208</ele>
<time>2010-01-01T00:03:39.000Z</time>
</trkpt>
<trkpt lat="50.509808" lon="6.967113">
<ele>204</ele>
<time>2010-01-01T00:03:47.000Z</time>
</trkpt>
<trkpt lat="50.509869" lon="6.967243">
<ele>201</ele>
<time>2010-01-01T00:03:51.000Z</time>
</trkpt>
<trkpt lat="50.509899" lon="6.967515">
<ele>196</ele>
<time>2010-01-01T00:03:58.000Z</time>
</trkpt>
<trkpt lat="50.509963" lon="6.967589">
<ele>196</ele>
<time>2010-01-01T00:04:01.000Z</time>
</trkpt>
<trkpt lat="50.510071" lon="6.967624">
<ele>197</ele>
<time>2010-01-01T00:04:05.000Z</time>
</trkpt>
<trkpt lat="50.510173" lon="6.967609">
<ele>196</ele>
<time>2010-01-01T00:04:09.000Z</time>
</trkpt>
<trkpt lat="50.510245" lon="6.967564">
<ele>196</ele>
<time>2010-01-01T00:04:13.000Z</time>
</trkpt>
<trkpt lat="50.510296" lon="6.967515">
<ele>195</ele>
<time>2010-01-01T00:04:15.000Z</time>
</trkpt>
<trkpt lat="50.510333" lon="6.967442">
<ele>196</ele>
<time>2010-01-01T00:04:17.000Z</time>
</trkpt>
<trkpt lat="50.510426" lon="6.967352">
<ele>197</ele>
<time>2010-01-01T00:04:22.000Z</time>
</trkpt>
<trkpt lat="50.510517" lon="6.967291">
<ele>198</ele>
<time>2010-01-01T00:04:26.000Z</time>
</trkpt>
<trkpt lat="50.510872" lon="6.967229">
<ele>199</ele>
<time>2010-01-01T00:04:40.000Z</time>
</trkpt>
<trkpt lat="50.511214" lon="6.967287">
<ele>198</ele>
<time>2010-01-01T00:04:54.000Z</time>
</trkpt>
<trkpt lat="50.511416" lon="6.967301">
<ele>197</ele>
<time>2010-01-01T00:05:02.000Z</time>
</trkpt>
<trkpt lat="50.511603" lon="6.967335">
<ele>197</ele>
<time>2010-01-01T00:05:09.000Z</time>
</trkpt>
<trkpt lat="50.511707" lon="6.967332">
<ele>197</ele>
<time>2010-01-01T00:05:13.000Z</time>
</trkpt>
<trkpt lat="50.511775" lon="6.96735">
<ele>197</ele>
<time>2010-01-01T00:05:16.000Z</time>
</trkpt>
<trkpt lat="50.511898" lon="6.967307">
<ele>199</ele>
<time>2010-01-01T00:05:21.000Z</time>
</trkpt>
<trkpt lat="50.512009" lon="6.967304">
<ele>200</ele>
<time>2010-01-01T00:05:26.000Z</time>
</trkpt>
<trkpt lat="50.512253" lon="6.967332">
<ele>201</ele>
<time>2010-01-01T00:05:36.000Z</time>
</trkpt>
<trkpt lat="50.512272" lon="6.967389">
<ele>200</ele>
<time>2010-01-01T00:05:37.000Z</time>
</trkpt>
<trkpt lat="50.512507" lon="6.967452">
<ele>199</ele>
<time>2010-01-01T00:05:47.000Z</time>
</trkpt>
<trkpt lat="50.512871" lon="6.967612">
<ele>198</ele>
<time>2010-01-01T00:06:02.000Z</time>
</trkpt>
<trkpt lat="50.512992" lon="6.967646">
<ele>198</ele>
<time>2010-01-01T00:06:07.000Z</time>
</trkpt>
<trkpt lat="50.513103" lon="6.967727">
<ele>198</ele>
<time>2010-01-01T00:06:12.000Z</time>
</trkpt>
<trkpt lat="50.513149" lon="6.967712">
<ele>198</ele>
<time>2010-01-01T00:06:14.000Z</time>
</trkpt>
<trkpt lat="50.513176" lon="6.967615">
<ele>198</ele>
<time>2010-01-01T00:06:16.000Z</time>
</trkpt>
<trkpt lat="50.513172" lon="6.967575">
<ele>198</ele>
<time>2010-01-01T00:06:17.000Z</time>
</trkpt>
<trkpt lat="50.513351" lon="6.967279">
<ele>204</ele>
<time>2010-01-01T00:06:28.000Z</time>
</trkpt>
<trkpt lat="50.5134" lon="6.967137">
<ele>207</ele>
<time>2010-01-01T00:06:32.000Z</time>
</trkpt>
<trkpt lat="50.513393" lon="6.967031">
<ele>210</ele>
<time>2010-01-01T00:06:35.000Z</time>
</trkpt>
<trkpt lat="50.513363" lon="6.96711">
<ele>209</ele>
<time>2010-01-01T00:06:37.000Z</time>
</trkpt>
<trkpt lat="50.513343" lon="6.967118">
<ele>209</ele>
<time>2010-01-01T00:06:38.000Z</time>
</trkpt>
<trkpt lat="50.513405" lon="6.967087">
<ele>208</ele>
<time>2010-01-01T00:06:40.000Z</time>
</trkpt>
<trkpt lat="50.513409" lon="6.966918">
<ele>213</ele>
<time>2010-01-01T00:06:44.000Z</time>
</trkpt>
<trkpt lat="50.513556" lon="6.966817">
<ele>211</ele>
<time>2010-01-01T00:06:51.000Z</time>
</trkpt>
<trkpt lat="50.513614" lon="6.966752">
<ele>210</ele>
<time>2010-01-01T00:06:54.000Z</time>
</trkpt>
<trkpt lat="50.513733" lon="6.966501">
<ele>209</ele>
<time>2010-01-01T00:07:02.000Z</time>
</trkpt>
<trkpt lat="50.513752" lon="6.966334">
<ele>212</ele>
<time>2010-01-01T00:07:06.000Z</time>
</trkpt>
<trkpt lat="50.51374" lon="6.966258">
<ele>213</ele>
<time>2010-01-01T00:07:08.000Z</time>
</trkpt>
<trkpt lat="50.513831" lon="6.966026">
<ele>213</ele>
<time>2010-01-01T00:07:15.000Z</time>
</trkpt>
<trkpt lat="50.513908" lon="6.965909">
<ele>211</ele>
<time>2010-01-01T00:07:19.000Z</time>
</trkpt>
<trkpt lat="50.513966" lon="6.965708">
<ele>211</ele>
<time>2010-01-01T00:07:25.000Z</time>
</trkpt>
<trkpt lat="50.514041" lon="6.965644">
<ele>208</ele>
<time>2010-01-01T00:07:28.000Z</time>
</trkpt>
<trkpt lat="50.514065" lon="6.965517">
<ele>208</ele>
<time>2010-01-01T00:07:32.000Z</time>
</trkpt>
<trkpt lat="50.514214" lon="6.965207">
<ele>205</ele>
<time>2010-01-01T00:07:42.000Z</time>
</trkpt>
<trkpt lat="50.514289" lon="6.964828">
<ele>206</ele>
<time>2010-01-01T00:07:52.000Z</time>
</trkpt>
<trkpt lat="50.514271" lon="6.964672">
<ele>206</ele>
<time>2010-01-01T00:07:56.000Z</time>
</trkpt>
<trkpt lat="50.514286" lon="6.964511">
<ele>207</ele>
<time>2010-01-01T00:08:00.000Z</time>
</trkpt>
<trkpt lat="50.514271" lon="6.964112">
<ele>207</ele>
<time>2010-01-01T00:08:10.000Z</time>
</trkpt>
<trkpt lat="50.514235" lon="6.963966">
<ele>207</ele>
<time>2010-01-01T00:08:14.000Z</time>
</trkpt>
<trkpt lat="50.514225" lon="6.963698">
<ele>205</ele>
<time>2010-01-01T00:08:21.000Z</time>
</trkpt>
<trkpt lat="50.514153" lon="6.963346">
<ele>204</ele>
<time>2010-01-01T00:08:30.000Z</time>
</trkpt>
<trkpt lat="50.514148" lon="6.963238">
<ele>204</ele>
<time>2010-01-01T00:08:33.000Z</time>
</trkpt>
<trkpt lat="50.514102" lon="6.963135">
<ele>206</ele>
<time>2010-01-01T00:08:36.000Z</time>
</trkpt>
<trkpt lat="50.514014" lon="6.963063">
<ele>210</ele>
<time>2010-01-01T00:08:40.000Z</time>
</trkpt>
<trkpt lat="50.513966" lon="6.962929">
<ele>212</ele>
<time>2010-01-01T00:08:44.000Z</time>
</trkpt>
<trkpt lat="50.513882" lon="6.962615">
<ele>215</ele>
<time>2010-01-01T00:08:53.000Z</time>
</trkpt>
<trkpt lat="50.513851" lon="6.962418">
<ele>216</ele>
<time>2010-01-01T00:08:58.000Z</time>
</trkpt>
<trkpt lat="50.513827" lon="6.962197">
<ele>216</ele>
<time>2010-01-01T00:09:04.000Z</time>
</trkpt>
<trkpt lat="50.513827" lon="6.962026">
<ele>216</ele>
<time>2010-01-01T00:09:08.000Z</time>
</trkpt>
<trkpt lat="50.513713" lon="6.961692">
<ele>220</ele>
<time>2010-01-01T00:09:18.000Z</time>
</trkpt>
<trkpt lat="50.513682" lon="6.96147">
<ele>221</ele>
<time>2010-01-01T00:09:23.000Z</time>
</trkpt>
<trkpt lat="50.513614" lon="6.961295">
<ele>224</ele>
<time>2010-01-01T00:09:29.000Z</time>
</trkpt>
<trkpt lat="50.513577" lon="6.961231">
<ele>226</ele>
<time>2010-01-01T00:09:31.000Z</time>
</trkpt>
<trkpt lat="50.513538" lon="6.961201">
<ele>227</ele>
<time>2010-01-01T00:09:33.000Z</time>
</trkpt>
<trkpt lat="50.513493" lon="6.961111">
<ele>229</ele>
<time>2010-01-01T00:09:36.000Z</time>
</trkpt>
<trkpt lat="50.513405" lon="6.960827">
<ele>232</ele>
<time>2010-01-01T00:09:44.000Z</time>
</trkpt>
<trkpt lat="50.513366" lon="6.960489">
<ele>234</ele>
<time>2010-01-01T00:09:52.000Z</time>
</trkpt>
<trkpt lat="50.51337" lon="6.959996">
<ele>235</ele>
<time>2010-01-01T00:10:05.000Z</time>
</trkpt>
<trkpt lat="50.513405" lon="6.959923">
<ele>234</ele>
<time>2010-01-01T00:10:07.000Z</time>
</trkpt>
<trkpt lat="50.513415" lon="6.959814">
<ele>233</ele>
<time>2010-01-01T00:10:10.000Z</time>
</trkpt>
<trkpt lat="50.513451" lon="6.959718">
<ele>231</ele>
<time>2010-01-01T00:10:13.000Z</time>
</trkpt>
<trkpt lat="50.513447" lon="6.959618">
<ele>232</ele>
<time>2010-01-01T00:10:15.000Z</time>
</trkpt>
<trkpt lat="50.513427" lon="6.959542">
<ele>232</ele>
<time>2010-01-01T00:10:17.000Z</time>
</trkpt>
<trkpt lat="50.513381" lon="6.95947">
<ele>234</ele>
<time>2010-01-01T00:10:20.000Z</time>
</trkpt>
<trkpt lat="50.513245" lon="6.959036">
<ele>240</ele>
<time>2010-01-01T00:10:32.000Z</time>
</trkpt>
<trkpt lat="50.513176" lon="6.958919">
<ele>243</ele>
<time>2010-01-01T00:10:36.000Z</time>
</trkpt>
<trkpt lat="50.51313" lon="6.958789">
<ele>245</ele>
<time>2010-01-01T00:10:40.000Z</time>
</trkpt>
<trkpt lat="50.513046" lon="6.95868">
<ele>250</ele>
<time>2010-01-01T00:10:45.000Z</time>
</trkpt>
<trkpt lat="50.512908" lon="6.958436">
<ele>257</ele>
<time>2010-01-01T00:10:53.000Z</time>
</trkpt>
<trkpt lat="50.512862" lon="6.958324">
<ele>259</ele>
<time>2010-01-01T00:10:56.000Z</time>
</trkpt>
<trkpt lat="50.512856" lon="6.958256">
<ele>260</ele>
<time>2010-01-01T00:10:58.000Z</time>
</trkpt>
<trkpt lat="50.512875" lon="6.957998">
<ele>261</ele>
<time>2010-01-01T00:11:05.000Z</time>
</trkpt>
<trkpt lat="50.512917" lon="6.957817">
<ele>259</ele>
<time>2010-01-01T00:11:10.000Z</time>
</trkpt>
<trkpt lat="50.512974" lon="6.957712">
<ele>256</ele>
<time>2010-01-01T00:11:13.000Z</time>
</trkpt>
<trkpt lat="50.512985" lon="6.957604">
<ele>256</ele>
<time>2010-01-01T00:11:16.000Z</time>
</trkpt>
<trkpt lat="50.512985" lon="6.957514">
<ele>256</ele>
<time>2010-01-01T00:11:18.000Z</time>
</trkpt>
<trkpt lat="50.51295" lon="6.957387">
<ele>260</ele>
<time>2010-01-01T00:11:22.000Z</time>
</trkpt>
<trkpt lat="50.512969" lon="6.957259">
<ele>261</ele>
<time>2010-01-01T00:11:25.000Z</time>
</trkpt>
<trkpt lat="50.513064" lon="6.956809">
<ele>262</ele>
<time>2010-01-01T00:11:37.000Z</time>
</trkpt>
<trkpt lat="50.513134" lon="6.956628">
<ele>260</ele>
<time>2010-01-01T00:11:42.000Z</time>
</trkpt>
<trkpt lat="50.513187" lon="6.95639">
<ele>257</ele>
<time>2010-01-01T00:11:49.000Z</time>
</trkpt>
<trkpt lat="50.513209" lon="6.956184">
<ele>257</ele>
<time>2010-01-01T00:11:54.000Z</time>
</trkpt>
<trkpt lat="50.513267" lon="6.955929">
<ele>256</ele>
<time>2010-01-01T00:12:01.000Z</time>
</trkpt>
<trkpt lat="50.513343" lon="6.955842">
<ele>254</ele>
<time>2010-01-01T00:12:05.000Z</time>
</trkpt>
<trkpt lat="50.513312" lon="6.955784">
<ele>254</ele>
<time>2010-01-01T00:12:07.000Z</time>
</trkpt>
<trkpt lat="50.513251" lon="6.955755">
<ele>255</ele>
<time>2010-01-01T00:12:09.000Z</time>
</trkpt>
<trkpt lat="50.513164" lon="6.955627">
<ele>255</ele>
<time>2010-01-01T00:12:14.000Z</time>
</trkpt>
<trkpt lat="50.513064" lon="6.955546">
<ele>256</ele>
<time>2010-01-01T00:12:19.000Z</time>
</trkpt>
<trkpt lat="50.513022" lon="6.955459">
<ele>255</ele>
<time>2010-01-01T00:12:21.000Z</time>
</trkpt>
<trkpt lat="50.512985" lon="6.955441">
<ele>256</ele>
<time>2010-01-01T00:12:23.000Z</time>
</trkpt>
<trkpt lat="50.512607" lon="6.95512">
<ele>257</ele>
<time>2010-01-01T00:12:40.000Z</time>
</trkpt>
<trkpt lat="50.512591" lon="6.955125">
<ele>257</ele>
<time>2010-01-01T00:12:41.000Z</time>
</trkpt>
<trkpt lat="50.512374" lon="6.954911">
<ele>256</ele>
<time>2010-01-01T00:12:51.000Z</time>
</trkpt>
<trkpt lat="50.512287" lon="6.954877">
<ele>258</ele>
<time>2010-01-01T00:12:55.000Z</time>
</trkpt>
<trkpt lat="50.512217" lon="6.954809">
<ele>258</ele>
<time>2010-01-01T00:12:58.000Z</time>
</trkpt>
<trkpt lat="50.512154" lon="6.954808">
<ele>260</ele>
<time>2010-01-01T00:13:00.000Z</time>
</trkpt>
<trkpt lat="50.511962" lon="6.954747">
<ele>265</ele>
<time>2010-01-01T00:13:08.000Z</time>
</trkpt>
<trkpt lat="50.511905" lon="6.954645">
<ele>263</ele>
<time>2010-01-01T00:13:12.000Z</time>
</trkpt>
<trkpt lat="50.511874" lon="6.954461">
<ele>257</ele>
<time>2010-01-01T00:13:17.000Z</time>
</trkpt>
<trkpt lat="50.511822" lon="6.95434">
<ele>255</ele>
<time>2010-01-01T00:13:20.000Z</time>
</trkpt>
<trkpt lat="50.511531" lon="6.95398">
<ele>253</ele>
<time>2010-01-01T00:13:35.000Z</time>
</trkpt>
<trkpt lat="50.511439" lon="6.953824">
<ele>252</ele>
<time>2010-01-01T00:13:40.000Z</time>
</trkpt>
<trkpt lat="50.511089" lon="6.953348">
<ele>250</ele>
<time>2010-01-01T00:13:59.000Z</time>
</trkpt>
<trkpt lat="50.511054" lon="6.953342">
<ele>251</ele>
<time>2010-01-01T00:14:00.000Z</time>
</trkpt>
<trkpt lat="50.510924" lon="6.953146">
<ele>250</ele>
<time>2010-01-01T00:14:08.000Z</time>
</trkpt>
<trkpt lat="50.510753" lon="6.952953">
<ele>248</ele>
<time>2010-01-01T00:14:16.000Z</time>
</trkpt>
<trkpt lat="50.510719" lon="6.952931">
<ele>248</ele>
<time>2010-01-01T00:14:18.000Z</time>
</trkpt>
<trkpt lat="50.510665" lon="6.952916">
<ele>248</ele>
<time>2010-01-01T00:14:20.000Z</time>
</trkpt>
<trkpt lat="50.510616" lon="6.952879">
<ele>248</ele>
<time>2010-01-01T00:14:22.000Z</time>
</trkpt>
<trkpt lat="50.510414" lon="6.952898">
<ele>250</ele>
<time>2010-01-01T00:14:30.000Z</time>
</trkpt>
<trkpt lat="50.510342" lon="6.952889">
<ele>251</ele>
<time>2010-01-01T00:14:33.000Z</time>
</trkpt>
<trkpt lat="50.510216" lon="6.952933">
<ele>253</ele>
<time>2010-01-01T00:14:38.000Z</time>
</trkpt>
<trkpt lat="50.510116" lon="6.953012">
<ele>256</ele>
<time>2010-01-01T00:14:43.000Z</time>
</trkpt>
<trkpt lat="50.509917" lon="6.953091">
<ele>258</ele>
<time>2010-01-01T00:14:51.000Z</time>
</trkpt>
<trkpt lat="50.509857" lon="6.953129">
<ele>259</ele>
<time>2010-01-01T00:14:53.000Z</time>
</trkpt>
<trkpt lat="50.509746" lon="6.95315">
<ele>259</ele>
<time>2010-01-01T00:14:58.000Z</time>
</trkpt>
<trkpt lat="50.509646" lon="6.953207">
<ele>259</ele>
<time>2010-01-01T00:15:02.000Z</time>
</trkpt>
<trkpt lat="50.509563" lon="6.953222">
<ele>259</ele>
<time>2010-01-01T00:15:05.000Z</time>
</trkpt>
<trkpt lat="50.509444" lon="6.953296">
<ele>260</ele>
<time>2010-01-01T00:15:11.000Z</time>
</trkpt>
<trkpt lat="50.509383" lon="6.953311">
<ele>260</ele>
<time>2010-01-01T00:15:13.000Z</time>
</trkpt>
<trkpt lat="50.509377" lon="6.953327">
<ele>260</ele>
<time>2010-01-01T00:15:14.000Z</time>
</trkpt>
<trkpt lat="50.509262" lon="6.953292">
<ele>259</ele>
<time>2010-01-01T00:15:18.000Z</time>
</trkpt>
<trkpt lat="50.509398" lon="6.953166">
<ele>259</ele>
<time>2010-01-01T00:15:25.000Z</time>
</trkpt>
<trkpt lat="50.509483" lon="6.953155">
<ele>259</ele>
<time>2010-01-01T00:15:28.000Z</time>
</trkpt>
<trkpt lat="50.509624" lon="6.953047">
<ele>258</ele>
<time>2010-01-01T00:15:34.000Z</time>
</trkpt>
<trkpt lat="50.509688" lon="6.952952">
<ele>257</ele>
<time>2010-01-01T00:15:38.000Z</time>
</trkpt>
<trkpt lat="50.509766" lon="6.952906">
<ele>256</ele>
<time>2010-01-01T00:15:41.000Z</time>
</trkpt>
<trkpt lat="50.509926" lon="6.95273">
<ele>252</ele>
<time>2010-01-01T00:15:49.000Z</time>
</trkpt>
<trkpt lat="50.509983" lon="6.95264">
<ele>251</ele>
<time>2010-01-01T00:15:52.000Z</time>
</trkpt>
<trkpt lat="50.510025" lon="6.952536">
<ele>248</ele>
<time>2010-01-01T00:15:55.000Z</time>
</trkpt>
<trkpt lat="50.510062" lon="6.952543">
<ele>248</ele>
<time>2010-01-01T00:15:57.000Z</time>
</trkpt>
<trkpt lat="50.510101" lon="6.952515">
<ele>246</ele>
<time>2010-01-01T00:15:58.000Z</time>
</trkpt>
<trkpt lat="50.510146" lon="6.95193">
<ele>237</ele>
<time>2010-01-01T00:16:13.000Z</time>
</trkpt>
<trkpt lat="50.510192" lon="6.951907">
<ele>236</ele>
<time>2010-01-01T00:16:15.000Z</time>
</trkpt>
<trkpt lat="50.510207" lon="6.951835">
<ele>234</ele>
<time>2010-01-01T00:16:17.000Z</time>
</trkpt>
<trkpt lat="50.510058" lon="6.951632">
<ele>235</ele>
<time>2010-01-01T00:16:25.000Z</time>
</trkpt>
<trkpt lat="50.509895" lon="6.951344">
<ele>233</ele>
<time>2010-01-01T00:16:35.000Z</time>
</trkpt>
<trkpt lat="50.509631" lon="6.951056">
<ele>233</ele>
<time>2010-01-01T00:16:48.000Z</time>
</trkpt>
<trkpt lat="50.509579" lon="6.951048">
<ele>234</ele>
<time>2010-01-01T00:16:50.000Z</time>
</trkpt>
<trkpt lat="50.509414" lon="6.95114">
<ele>239</ele>
<time>2010-01-01T00:16:57.000Z</time>
</trkpt>
<trkpt lat="50.509304" lon="6.951159">
<ele>242</ele>
<time>2010-01-01T00:17:01.000Z</time>
</trkpt>
<trkpt lat="50.509086" lon="6.951311">
<ele>247</ele>
<time>2010-01-01T00:17:11.000Z</time>
</trkpt>
<trkpt lat="50.509094" lon="6.951181">
<ele>246</ele>
<time>2010-01-01T00:17:14.000Z</time>
</trkpt>
<trkpt lat="50.509143" lon="6.951088">
<ele>244</ele>
<time>2010-01-01T00:17:17.000Z</time>
</trkpt>
<trkpt lat="50.509154" lon="6.950862">
<ele>242</ele>
<time>2010-01-01T00:17:23.000Z</time>
</trkpt>
<trkpt lat="50.509196" lon="6.950649">
<ele>240</ele>
<time>2010-01-01T00:17:29.000Z</time>
</trkpt>
<trkpt lat="50.509232" lon="6.950555">
<ele>238</ele>
<time>2010-01-01T00:17:32.000Z</time>
</trkpt>
<trkpt lat="50.509247" lon="6.950459">
<ele>237</ele>
<time>2010-01-01T00:17:34.000Z</time>
</trkpt>
<trkpt lat="50.509238" lon="6.950428">
<ele>237</ele>
<time>2010-01-01T00:17:35.000Z</time>
</trkpt>
<trkpt lat="50.509253" lon="6.950423">
<ele>237</ele>
<time>2010-01-01T00:17:36.000Z</time>
</trkpt>
<trkpt lat="50.50935" lon="6.950217">
<ele>233</ele>
<time>2010-01-01T00:17:42.000Z</time>
</trkpt>
<trkpt lat="50.509476" lon="6.950104">
<ele>229</ele>
<time>2010-01-01T00:17:48.000Z</time>
</trkpt>
<trkpt lat="50.509579" lon="6.949952">
<ele>226</ele>
<time>2010-01-01T00:17:54.000Z</time>
</trkpt>
<trkpt lat="50.509631" lon="6.949821">
<ele>224</ele>
<time>2010-01-01T00:17:57.000Z</time>
</trkpt>
<trkpt lat="50.509724" lon="6.949741">
<ele>222</ele>
<time>2010-01-01T00:18:02.000Z</time>
</trkpt>
<trkpt lat="50.510047" lon="6.949738">
<ele>217</ele>
<time>2010-01-01T00:18:15.000Z</time>
</trkpt>
<trkpt lat="50.510173" lon="6.949792">
<ele>219</ele>
<time>2010-01-01T00:18:20.000Z</time>
</trkpt>
<trkpt lat="50.510291" lon="6.9498">
<ele>221</ele>
<time>2010-01-01T00:18:25.000Z</time>
</trkpt>
<trkpt lat="50.510489" lon="6.949901">
<ele>223</ele>
<time>2010-01-01T00:18:33.000Z</time>
</trkpt>
<trkpt lat="50.510571" lon="6.949849">
<ele>225</ele>
<time>2010-01-01T00:18:36.000Z</time>
</trkpt>
<trkpt lat="50.510604" lon="6.949744">
<ele>226</ele>
<time>2010-01-01T00:18:39.000Z</time>
</trkpt>
<trkpt lat="50.510571" lon="6.949588">
<ele>227</ele>
<time>2010-01-01T00:18:44.000Z</time>
</trkpt>
<trkpt lat="50.510508" lon="6.949462">
<ele>227</ele>
<time>2010-01-01T00:18:48.000Z</time>
</trkpt>
<trkpt lat="50.510414" lon="6.949108">
<ele>228</ele>
<time>2010-01-01T00:18:58.000Z</time>
</trkpt>
<trkpt lat="50.510345" lon="6.94879">
<ele>226</ele>
<time>2010-01-01T00:19:06.000Z</time>
</trkpt>
<trkpt lat="50.510348" lon="6.948647">
<ele>226</ele>
<time>2010-01-01T00:19:10.000Z</time>
</trkpt>
<trkpt lat="50.510368" lon="6.948585">
<ele>227</ele>
<time>2010-01-01T00:19:11.000Z</time>
</trkpt>
<trkpt lat="50.510364" lon="6.948465">
<ele>227</ele>
<time>2010-01-01T00:19:15.000Z</time>
</trkpt>
<trkpt lat="50.510394" lon="6.948507">
<ele>227</ele>
<time>2010-01-01T00:19:16.000Z</time>
</trkpt>
<trkpt lat="50.510421" lon="6.948404">
<ele>228</ele>
<time>2010-01-01T00:19:19.000Z</time>
</trkpt>
<trkpt lat="50.510445" lon="6.948109">
<ele>228</ele>
<time>2010-01-01T00:19:27.000Z</time>
</trkpt>
<trkpt lat="50.51046" lon="6.947545">
<ele>226</ele>
<time>2010-01-01T00:19:41.000Z</time>
</trkpt>
<trkpt lat="50.510436" lon="6.947433">
<ele>226</ele>
<time>2010-01-01T00:19:44.000Z</time>
</trkpt>
<trkpt lat="50.510441" lon="6.947254">
<ele>226</ele>
<time>2010-01-01T00:19:48.000Z</time>
</trkpt>
<trkpt lat="50.510535" lon="6.946897">
<ele>228</ele>
<time>2010-01-01T00:19:58.000Z</time>
</trkpt>
<trkpt lat="50.510535" lon="6.946807">
<ele>228</ele>
<time>2010-01-01T00:20:01.000Z</time>
</trkpt>
<trkpt lat="50.510596" lon="6.946619">
<ele>230</ele>
<time>2010-01-01T00:20:06.000Z</time>
</trkpt>
<trkpt lat="50.51059" lon="6.946545">
<ele>230</ele>
<time>2010-01-01T00:20:08.000Z</time>
</trkpt>
<trkpt lat="50.510604" lon="6.946387">
<ele>230</ele>
<time>2010-01-01T00:20:12.000Z</time>
</trkpt>
<trkpt lat="50.510634" lon="6.946149">
<ele>231</ele>
<time>2010-01-01T00:20:18.000Z</time>
</trkpt>
<trkpt lat="50.510658" lon="6.946083">
<ele>232</ele>
<time>2010-01-01T00:20:20.000Z</time>
</trkpt>
<trkpt lat="50.510685" lon="6.945769">
<ele>233</ele>
<time>2010-01-01T00:20:28.000Z</time>
</trkpt>
<trkpt lat="50.51068" lon="6.945453">
<ele>233</ele>
<time>2010-01-01T00:20:36.000Z</time>
</trkpt>
<trkpt lat="50.510773" lon="6.945169">
<ele>235</ele>
<time>2010-01-01T00:20:44.000Z</time>
</trkpt>
<trkpt lat="50.510742" lon="6.944963">
<ele>234</ele>
<time>2010-01-01T00:20:50.000Z</time>
</trkpt>
<trkpt lat="50.510704" lon="6.94484">
<ele>233</ele>
<time>2010-01-01T00:20:53.000Z</time>
</trkpt>
<trkpt lat="50.510737" lon="6.944774">
<ele>233</ele>
<time>2010-01-01T00:20:55.000Z</time>
</trkpt>
<trkpt lat="50.510726" lon="6.944691">
<ele>233</ele>
<time>2010-01-01T00:20:57.000Z</time>
</trkpt>
<trkpt lat="50.510555" lon="6.944222">
<ele>229</ele>
<time>2010-01-01T00:21:11.000Z</time>
</trkpt>
<trkpt lat="50.510399" lon="6.943864">
<ele>230</ele>
<time>2010-01-01T00:21:22.000Z</time>
</trkpt>
<trkpt lat="50.510426" lon="6.943853">
<ele>231</ele>
<time>2010-01-01T00:21:23.000Z</time>
</trkpt>
<trkpt lat="50.510405" lon="6.943862">
<ele>230</ele>
<time>2010-01-01T00:21:24.000Z</time>
</trkpt>
<trkpt lat="50.510352" lon="6.943799">
<ele>230</ele>
<time>2010-01-01T00:21:27.000Z</time>
</trkpt>
<trkpt lat="50.510337" lon="6.943758">
<ele>230</ele>
<time>2010-01-01T00:21:28.000Z</time>
</trkpt>
<trkpt lat="50.51033" lon="6.9436">
<ele>232</ele>
<time>2010-01-01T00:21:32.000Z</time>
</trkpt>
<trkpt lat="50.510342" lon="6.943554">
<ele>233</ele>
<time>2010-01-01T00:21:33.000Z</time>
</trkpt>
<trkpt lat="50.510291" lon="6.943145">
<ele>235</ele>
<time>2010-01-01T00:21:44.000Z</time>
</trkpt>
<trkpt lat="50.510227" lon="6.942829">
<ele>235</ele>
<time>2010-01-01T00:21:52.000Z</time>
</trkpt>
<trkpt lat="50.510227" lon="6.942612">
<ele>236</ele>
<time>2010-01-01T00:21:58.000Z</time>
</trkpt>
<trkpt lat="50.510188" lon="6.942373">
<ele>236</ele>
<time>2010-01-01T00:22:04.000Z</time>
</trkpt>
<trkpt lat="50.510201" lon="6.942292">
<ele>236</ele>
<time>2010-01-01T00:22:06.000Z</time>
</trkpt>
<trkpt lat="50.510181" lon="6.942103">
<ele>235</ele>
<time>2010-01-01T00:22:11.000Z</time>
</trkpt>
<trkpt lat="50.510188" lon="6.941945">
<ele>235</ele>
<time>2010-01-01T00:22:15.000Z</time>
</trkpt>
<trkpt lat="50.510058" lon="6.941369">
<ele>232</ele>
<time>2010-01-01T00:22:31.000Z</time>
</trkpt>
<trkpt lat="50.510082" lon="6.941202">
<ele>232</ele>
<time>2010-01-01T00:22:35.000Z</time>
</trkpt>
<trkpt lat="50.510116" lon="6.941091">
<ele>233</ele>
<time>2010-01-01T00:22:38.000Z</time>
</trkpt>
<trkpt lat="50.510146" lon="6.941029">
<ele>233</ele>
<time>2010-01-01T00:22:40.000Z</time>
</trkpt>
<trkpt lat="50.51023" lon="6.940966">
<ele>234</ele>
<time>2010-01-01T00:22:44.000Z</time>
</trkpt>
<trkpt lat="50.51028" lon="6.940889">
<ele>235</ele>
<time>2010-01-01T00:22:47.000Z</time>
</trkpt>
<trkpt lat="50.510322" lon="6.940892">
<ele>236</ele>
<time>2010-01-01T00:22:49.000Z</time>
</trkpt>
<trkpt lat="50.510326" lon="6.940943">
<ele>236</ele>
<time>2010-01-01T00:22:50.000Z</time>
</trkpt>
<trkpt lat="50.510387" lon="6.940958">
<ele>237</ele>
<time>2010-01-01T00:22:52.000Z</time>
</trkpt>
<trkpt lat="50.510498" lon="6.940866">
<ele>239</ele>
<time>2010-01-01T00:22:57.000Z</time>
</trkpt>
<trkpt lat="50.510704" lon="6.940876">
<ele>243</ele>
<time>2010-01-01T00:23:06.000Z</time>
</trkpt>
<trkpt lat="50.51086" lon="6.940764">
<ele>246</ele>
<time>2010-01-01T00:23:12.000Z</time>
</trkpt>
<trkpt lat="50.510834" lon="6.940692">
<ele>247</ele>
<time>2010-01-01T00:23:15.000Z</time>
</trkpt>
<trkpt lat="50.510764" lon="6.940607">
<ele>247</ele>
<time>2010-01-01T00:23:18.000Z</time>
</trkpt>
<trkpt lat="50.510695" lon="6.940555">
<ele>247</ele>
<time>2010-01-01T00:23:21.000Z</time>
</trkpt>
<trkpt lat="50.510498" lon="6.940433">
<ele>244</ele>
<time>2010-01-01T00:23:30.000Z</time>
</trkpt>
<trkpt lat="50.510258" lon="6.94035">
<ele>239</ele>
<time>2010-01-01T00:23:39.000Z</time>
</trkpt>
<trkpt lat="50.510177" lon="6.940297">
<ele>238</ele>
<time>2010-01-01T00:23:43.000Z</time>
</trkpt>
<trkpt lat="50.510077" lon="6.940119">
<ele>236</ele>
<time>2010-01-01T00:23:49.000Z</time>
</trkpt>
<trkpt lat="50.509926" lon="6.939549">
<ele>235</ele>
<time>2010-01-01T00:24:05.000Z</time>
</trkpt>
<trkpt lat="50.509871" lon="6.939395">
<ele>235</ele>
<time>2010-01-01T00:24:09.000Z</time>
</trkpt>
<trkpt lat="50.509781" lon="6.938725">
<ele>236</ele>
<time>2010-01-01T00:24:27.000Z</time>
</trkpt>
<trkpt lat="50.509761" lon="6.938341">
<ele>238</ele>
<time>2010-01-01T00:24:36.000Z</time>
</trkpt>
<trkpt lat="50.50964" lon="6.937598">
<ele>236</ele>
<time>2010-01-01T00:24:56.000Z</time>
</trkpt>
<trkpt lat="50.509537" lon="6.936816">
<ele>237</ele>
<time>2010-01-01T00:25:16.000Z</time>
</trkpt>
<trkpt lat="50.509483" lon="6.93622">
<ele>237</ele>
<time>2010-01-01T00:25:32.000Z</time>
</trkpt>
<trkpt lat="50.50948" lon="6.936154">
<ele>237</ele>
<time>2010-01-01T00:25:33.000Z</time>
</trkpt>
<trkpt lat="50.509555" lon="6.935865">
<ele>239</ele>
<time>2010-01-01T00:25:41.000Z</time>
</trkpt>
<trkpt lat="50.509548" lon="6.93557">
<ele>240</ele>
<time>2010-01-01T00:25:49.000Z</time>
</trkpt>
<trkpt lat="50.509567" lon="6.93542">
<ele>240</ele>
<time>2010-01-01T00:25:53.000Z</time>
</trkpt>
<trkpt lat="50.509559" lon="6.935282">
<ele>240</ele>
<time>2010-01-01T00:25:56.000Z</time>
</trkpt>
<trkpt lat="50.509589" lon="6.935149">
<ele>241</ele>
<time>2010-01-01T00:26:00.000Z</time>
</trkpt>
<trkpt lat="50.509609" lon="6.934874">
<ele>243</ele>
<time>2010-01-01T00:26:07.000Z</time>
</trkpt>
<trkpt lat="50.509532" lon="6.934384">
<ele>244</ele>
<time>2010-01-01T00:26:20.000Z</time>
</trkpt>
<trkpt lat="50.509563" lon="6.934276">
<ele>246</ele>
<time>2010-01-01T00:26:23.000Z</time>
</trkpt>
<trkpt lat="50.50964" lon="6.933395">
<ele>249</ele>
<time>2010-01-01T00:26:45.000Z</time>
</trkpt>
<trkpt lat="50.509646" lon="6.93335">
<ele>249</ele>
<time>2010-01-01T00:26:47.000Z</time>
</trkpt>
<trkpt lat="50.509685" lon="6.933297">
<ele>250</ele>
<time>2010-01-01T00:26:49.000Z</time>
</trkpt>
<trkpt lat="50.509724" lon="6.933169">
<ele>251</ele>
<time>2010-01-01T00:26:52.000Z</time>
</trkpt>
<trkpt lat="50.50975" lon="6.933023">
<ele>250</ele>
<time>2010-01-01T00:26:56.000Z</time>
</trkpt>
<trkpt lat="50.509754" lon="6.932862">
<ele>249</ele>
<time>2010-01-01T00:27:00.000Z</time>
</trkpt>
<trkpt lat="50.509791" lon="6.932684">
<ele>249</ele>
<time>2010-01-01T00:27:05.000Z</time>
</trkpt>
<trkpt lat="50.509785" lon="6.932464">
<ele>247</ele>
<time>2010-01-01T00:27:11.000Z</time>
</trkpt>
<trkpt lat="50.509865" lon="6.932026">
<ele>244</ele>
<time>2010-01-01T00:27:22.000Z</time>
</trkpt>
<trkpt lat="50.509956" lon="6.931839">
<ele>243</ele>
<time>2010-01-01T00:27:28.000Z</time>
</trkpt>
<trkpt lat="50.510052" lon="6.931683">
<ele>244</ele>
<time>2010-01-01T00:27:34.000Z</time>
</trkpt>
<trkpt lat="50.510071" lon="6.931625">
<ele>245</ele>
<time>2010-01-01T00:27:35.000Z</time>
</trkpt>
<trkpt lat="50.510067" lon="6.931456">
<ele>243</ele>
<time>2010-01-01T00:27:40.000Z</time>
</trkpt>
<trkpt lat="50.510159" lon="6.931369">
<ele>246</ele>
<time>2010-01-01T00:27:44.000Z</time>
</trkpt>
<trkpt lat="50.510239" lon="6.931373">
<ele>249</ele>
<time>2010-01-01T00:27:47.000Z</time>
</trkpt>
<trkpt lat="50.510342" lon="6.931333">
<ele>253</ele>
<time>2010-01-01T00:27:51.000Z</time>
</trkpt>
<trkpt lat="50.510436" lon="6.931204">
<ele>256</ele>
<time>2010-01-01T00:27:56.000Z</time>
</trkpt>
<trkpt lat="50.510493" lon="6.931097">
<ele>257</ele>
<time>2010-01-01T00:28:00.000Z</time>
</trkpt>
<trkpt lat="50.510544" lon="6.930791">
<ele>255</ele>
<time>2010-01-01T00:28:08.000Z</time>
</trkpt>
<trkpt lat="50.510581" lon="6.930657">
<ele>255</ele>
<time>2010-01-01T00:28:12.000Z</time>
</trkpt>
<trkpt lat="50.510692" lon="6.930459">
<ele>257</ele>
<time>2010-01-01T00:28:18.000Z</time>
</trkpt>
<trkpt lat="50.510715" lon="6.930368">
<ele>257</ele>
<time>2010-01-01T00:28:21.000Z</time>
</trkpt>
<trkpt lat="50.510768" lon="6.930286">
<ele>257</ele>
<time>2010-01-01T00:28:24.000Z</time>
</trkpt>
<trkpt lat="50.510863" lon="6.930199">
<ele>260</ele>
<time>2010-01-01T00:28:28.000Z</time>
</trkpt>
<trkpt lat="50.510936" lon="6.929882">
<ele>260</ele>
<time>2010-01-01T00:28:37.000Z</time>
</trkpt>
<trkpt lat="50.511108" lon="6.929749">
<ele>268</ele>
<time>2010-01-01T00:28:45.000Z</time>
</trkpt>
<trkpt lat="50.511153" lon="6.929527">
<ele>269</ele>
<time>2010-01-01T00:28:50.000Z</time>
</trkpt>
<trkpt lat="50.511157" lon="6.929399">
<ele>268</ele>
<time>2010-01-01T00:28:54.000Z</time>
</trkpt>
<trkpt lat="50.511195" lon="6.929274">
<ele>269</ele>
<time>2010-01-01T00:28:57.000Z</time>
</trkpt>
<trkpt lat="50.511192" lon="6.92911">
<ele>268</ele>
<time>2010-01-01T00:29:01.000Z</time>
</trkpt>
<trkpt lat="50.511173" lon="6.92905">
<ele>267</ele>
<time>2010-01-01T00:29:03.000Z</time>
</trkpt>
<trkpt lat="50.511157" lon="6.928828">
<ele>266</ele>
<time>2010-01-01T00:29:09.000Z</time>
</trkpt>
<trkpt lat="50.511157" lon="6.92846">
<ele>266</ele>
<time>2010-01-01T00:29:18.000Z</time>
</trkpt>
<trkpt lat="50.511131" lon="6.928279">
<ele>265</ele>
<time>2010-01-01T00:29:23.000Z</time>
</trkpt>
<trkpt lat="50.511108" lon="6.927895">
<ele>266</ele>
<time>2010-01-01T00:29:33.000Z</time>
</trkpt>
<trkpt lat="50.511126" lon="6.92787">
<ele>267</ele>
<time>2010-01-01T00:29:34.000Z</time>
</trkpt>
<trkpt lat="50.511138" lon="6.927585">
<ele>269</ele>
<time>2010-01-01T00:29:41.000Z</time>
</trkpt>
<trkpt lat="50.510975" lon="6.926446">
<ele>267</ele>
<time>2010-01-01T00:30:11.000Z</time>
</trkpt>
<trkpt lat="50.510918" lon="6.926289">
<ele>266</ele>
<time>2010-01-01T00:30:15.000Z</time>
</trkpt>
<trkpt lat="50.510761" lon="6.9259">
<ele>265</ele>
<time>2010-01-01T00:30:27.000Z</time>
</trkpt>
<trkpt lat="50.510616" lon="6.925611">
<ele>266</ele>
<time>2010-01-01T00:30:36.000Z</time>
</trkpt>
<trkpt lat="50.510566" lon="6.925547">
<ele>266</ele>
<time>2010-01-01T00:30:39.000Z</time>
</trkpt>
<trkpt lat="50.51052" lon="6.925425">
<ele>267</ele>
<time>2010-01-01T00:30:43.000Z</time>
</trkpt>
<trkpt lat="50.510322" lon="6.925085">
<ele>266</ele>
<time>2010-01-01T00:30:54.000Z</time>
</trkpt>
<trkpt lat="50.510203" lon="6.924937">
<ele>264</ele>
<time>2010-01-01T00:31:00.000Z</time>
</trkpt>
<trkpt lat="50.510086" lon="6.924747">
<ele>264</ele>
<time>2010-01-01T00:31:07.000Z</time>
</trkpt>
<trkpt lat="50.509929" lon="6.924564">
<ele>263</ele>
<time>2010-01-01T00:31:15.000Z</time>
</trkpt>
<trkpt lat="50.509788" lon="6.924368">
<ele>264</ele>
<time>2010-01-01T00:31:23.000Z</time>
</trkpt>
<trkpt lat="50.509697" lon="6.924258">
<ele>264</ele>
<time>2010-01-01T00:31:27.000Z</time>
</trkpt>
<trkpt lat="50.50933" lon="6.923889">
<ele>257</ele>
<time>2010-01-01T00:31:45.000Z</time>
</trkpt>
<trkpt lat="50.509079" lon="6.92355">
<ele>254</ele>
<time>2010-01-01T00:31:58.000Z</time>
</trkpt>
<trkpt lat="50.509013" lon="6.923495">
<ele>254</ele>
<time>2010-01-01T00:32:01.000Z</time>
</trkpt>
<trkpt lat="50.508864" lon="6.923286">
<ele>253</ele>
<time>2010-01-01T00:32:09.000Z</time>
</trkpt>
<trkpt lat="50.508789" lon="6.923209">
<ele>252</ele>
<time>2010-01-01T00:32:12.000Z</time>
</trkpt>
<trkpt lat="50.508735" lon="6.923081">
<ele>251</ele>
<time>2010-01-01T00:32:16.000Z</time>
</trkpt>
<trkpt lat="50.508708" lon="6.92294">
<ele>251</ele>
<time>2010-01-01T00:32:20.000Z</time>
</trkpt>
<trkpt lat="50.508663" lon="6.922823">
<ele>251</ele>
<time>2010-01-01T00:32:24.000Z</time>
</trkpt>
<trkpt lat="50.508635" lon="6.922594">
<ele>251</ele>
<time>2010-01-01T00:32:29.000Z</time>
</trkpt>
<trkpt lat="50.508624" lon="6.922435">
<ele>251</ele>
<time>2010-01-01T00:32:34.000Z</time>
</trkpt>
<trkpt lat="50.508675" lon="6.922275">
<ele>252</ele>
<time>2010-01-01T00:32:38.000Z</time>
</trkpt>
<trkpt lat="50.508677" lon="6.922049">
<ele>253</ele>
<time>2010-01-01T00:32:44.000Z</time>
</trkpt>
<trkpt lat="50.508663" lon="6.921957">
<ele>253</ele>
<time>2010-01-01T00:32:46.000Z</time>
</trkpt>
<trkpt lat="50.508675" lon="6.921872">
<ele>253</ele>
<time>2010-01-01T00:32:48.000Z</time>
</trkpt>
<trkpt lat="50.508671" lon="6.921558">
<ele>253</ele>
<time>2010-01-01T00:32:56.000Z</time>
</trkpt>
<trkpt lat="50.508712" lon="6.921286">
<ele>253</ele>
<time>2010-01-01T00:33:04.000Z</time>
</trkpt>
<trkpt lat="50.508754" lon="6.921152">
<ele>254</ele>
<time>2010-01-01T00:33:07.000Z</time>
</trkpt>
<trkpt lat="50.508804" lon="6.921083">
<ele>255</ele>
<time>2010-01-01T00:33:10.000Z</time>
</trkpt>
<trkpt lat="50.508853" lon="6.920855">
<ele>257</ele>
<time>2010-01-01T00:33:16.000Z</time>
</trkpt>
<trkpt lat="50.508937" lon="6.920748">
<ele>259</ele>
<time>2010-01-01T00:33:20.000Z</time>
</trkpt>
<trkpt lat="50.509124" lon="6.920281">
<ele>262</ele>
<time>2010-01-01T00:33:35.000Z</time>
</trkpt>
<trkpt lat="50.509178" lon="6.92022">
<ele>263</ele>
<time>2010-01-01T00:33:37.000Z</time>
</trkpt>
<trkpt lat="50.509227" lon="6.919972">
<ele>263</ele>
<time>2010-01-01T00:33:44.000Z</time>
</trkpt>
<trkpt lat="50.509251" lon="6.919755">
<ele>262</ele>
<time>2010-01-01T00:33:49.000Z</time>
</trkpt>
<trkpt lat="50.509341" lon="6.919528">
<ele>263</ele>
<time>2010-01-01T00:33:56.000Z</time>
</trkpt>
<trkpt lat="50.509387" lon="6.919342">
<ele>263</ele>
<time>2010-01-01T00:34:01.000Z</time>
</trkpt>
<trkpt lat="50.509429" lon="6.919281">
<ele>264</ele>
<time>2010-01-01T00:34:04.000Z</time>
</trkpt>
<trkpt lat="50.50951" lon="6.919049">
<ele>265</ele>
<time>2010-01-01T00:34:10.000Z</time>
</trkpt>
<trkpt lat="50.509585" lon="6.91901">
<ele>268</ele>
<time>2010-01-01T00:34:13.000Z</time>
</trkpt>
<trkpt lat="50.509643" lon="6.91869">
<ele>267</ele>
<time>2010-01-01T00:34:22.000Z</time>
</trkpt>
<trkpt lat="50.509678" lon="6.918643">
<ele>268</ele>
<time>2010-01-01T00:34:24.000Z</time>
</trkpt>
<trkpt lat="50.509708" lon="6.918516">
<ele>268</ele>
<time>2010-01-01T00:34:27.000Z</time>
</trkpt>
<trkpt lat="50.509788" lon="6.91833">
<ele>269</ele>
<time>2010-01-01T00:34:33.000Z</time>
</trkpt>
<trkpt lat="50.509814" lon="6.918207">
<ele>269</ele>
<time>2010-01-01T00:34:36.000Z</time>
</trkpt>
<trkpt lat="50.509829" lon="6.918064">
<ele>268</ele>
<time>2010-01-01T00:34:40.000Z</time>
</trkpt>
<trkpt lat="50.509818" lon="6.917731">
<ele>265</ele>
<time>2010-01-01T00:34:48.000Z</time>
</trkpt>
<trkpt lat="50.509833" lon="6.917597">
<ele>264</ele>
<time>2010-01-01T00:34:52.000Z</time>
</trkpt>
<trkpt lat="50.509926" lon="6.917166">
<ele>262</ele>
<time>2010-01-01T00:35:03.000Z</time>
</trkpt>
<trkpt lat="50.509922" lon="6.917071">
<ele>261</ele>
<time>2010-01-01T00:35:06.000Z</time>
</trkpt>
<trkpt lat="50.509811" lon="6.916981">
<ele>258</ele>
<time>2010-01-01T00:35:11.000Z</time>
</trkpt>
<trkpt lat="50.509772" lon="6.916854">
<ele>256</ele>
<time>2010-01-01T00:35:14.000Z</time>
</trkpt>
<trkpt lat="50.509781" lon="6.916695">
<ele>255</ele>
<time>2010-01-01T00:35:19.000Z</time>
</trkpt>
<trkpt lat="50.509754" lon="6.916309">
<ele>253</ele>
<time>2010-01-01T00:35:28.000Z</time>
</trkpt>
<trkpt lat="50.509769" lon="6.916215">
<ele>253</ele>
<time>2010-01-01T00:35:31.000Z</time>
</trkpt>
<trkpt lat="50.509842" lon="6.916115">
<ele>253</ele>
<time>2010-01-01T00:35:35.000Z</time>
</trkpt>
<trkpt lat="50.509929" lon="6.916033">
<ele>254</ele>
<time>2010-01-01T00:35:39.000Z</time>
</trkpt>
<trkpt lat="50.509956" lon="6.915985">
<ele>254</ele>
<time>2010-01-01T00:35:40.000Z</time>
</trkpt>
<trkpt lat="50.51004" lon="6.915962">
<ele>255</ele>
<time>2010-01-01T00:35:44.000Z</time>
</trkpt>
<trkpt lat="50.510062" lon="6.915938">
<ele>255</ele>
<time>2010-01-01T00:35:45.000Z</time>
</trkpt>
<trkpt lat="50.510135" lon="6.915781">
<ele>256</ele>
<time>2010-01-01T00:35:50.000Z</time>
</trkpt>
<trkpt lat="50.510197" lon="6.915607">
<ele>257</ele>
<time>2010-01-01T00:35:55.000Z</time>
</trkpt>
<trkpt lat="50.510242" lon="6.915541">
<ele>259</ele>
<time>2010-01-01T00:35:57.000Z</time>
</trkpt>
<trkpt lat="50.510342" lon="6.915196">
<ele>261</ele>
<time>2010-01-01T00:36:07.000Z</time>
</trkpt>
<trkpt lat="50.510432" lon="6.915013">
<ele>264</ele>
<time>2010-01-01T00:36:13.000Z</time>
</trkpt>
<trkpt lat="50.510529" lon="6.914734">
<ele>266</ele>
<time>2010-01-01T00:36:21.000Z</time>
</trkpt>
<trkpt lat="50.510581" lon="6.914624">
<ele>267</ele>
<time>2010-01-01T00:36:25.000Z</time>
</trkpt>
<trkpt lat="50.510596" lon="6.914536">
<ele>267</ele>
<time>2010-01-01T00:36:27.000Z</time>
</trkpt>
<trkpt lat="50.5107" lon="6.9144">
<ele>269</ele>
<time>2010-01-01T00:36:32.000Z</time>
</trkpt>
<trkpt lat="50.510746" lon="6.91427">
<ele>270</ele>
<time>2010-01-01T00:36:36.000Z</time>
</trkpt>
<trkpt lat="50.510753" lon="6.914163">
<ele>270</ele>
<time>2010-01-01T00:36:39.000Z</time>
</trkpt>
<trkpt lat="50.510902" lon="6.913872">
<ele>272</ele>
<time>2010-01-01T00:36:48.000Z</time>
</trkpt>
<trkpt lat="50.511036" lon="6.913398">
<ele>272</ele>
<time>2010-01-01T00:37:02.000Z</time>
</trkpt>
<trkpt lat="50.51131" lon="6.912655">
<ele>268</ele>
<time>2010-01-01T00:37:23.000Z</time>
</trkpt>
<trkpt lat="50.511355" lon="6.912627">
<ele>268</ele>
<time>2010-01-01T00:37:25.000Z</time>
</trkpt>
<trkpt lat="50.511485" lon="6.912437">
<ele>268</ele>
<time>2010-01-01T00:37:32.000Z</time>
</trkpt>
<trkpt lat="50.5115" lon="6.912381">
<ele>268</ele>
<time>2010-01-01T00:37:34.000Z</time>
</trkpt>
<trkpt lat="50.511516" lon="6.912372">
<ele>269</ele>
<time>2010-01-01T00:37:35.000Z</time>
</trkpt>
<trkpt lat="50.511558" lon="6.911971">
<ele>267</ele>
<time>2010-01-01T00:37:45.000Z</time>
</trkpt>
<trkpt lat="50.511547" lon="6.911692">
<ele>266</ele>
<time>2010-01-01T00:37:52.000Z</time>
</trkpt>
<trkpt lat="50.511436" lon="6.91142">
<ele>264</ele>
<time>2010-01-01T00:38:00.000Z</time>
</trkpt>
<trkpt lat="50.511428" lon="6.911387">
<ele>263</ele>
<time>2010-01-01T00:38:01.000Z</time>
</trkpt>
<trkpt lat="50.511443" lon="6.911409">
<ele>264</ele>
<time>2010-01-01T00:38:02.000Z</time>
</trkpt>
<trkpt lat="50.51141" lon="6.911284">
<ele>263</ele>
<time>2010-01-01T00:38:06.000Z</time>
</trkpt>
<trkpt lat="50.51149" lon="6.911147">
<ele>265</ele>
<time>2010-01-01T00:38:10.000Z</time>
</trkpt>
<trkpt lat="50.511482" lon="6.911076">
<ele>264</ele>
<time>2010-01-01T00:38:12.000Z</time>
</trkpt>
<trkpt lat="50.511509" lon="6.910938">
<ele>265</ele>
<time>2010-01-01T00:38:16.000Z</time>
</trkpt>
<trkpt lat="50.511641" lon="6.910693">
<ele>267</ele>
<time>2010-01-01T00:38:24.000Z</time>
</trkpt>
<trkpt lat="50.511768" lon="6.910516">
<ele>270</ele>
<time>2010-01-01T00:38:31.000Z</time>
</trkpt>
<trkpt lat="50.511898" lon="6.910239">
<ele>274</ele>
<time>2010-01-01T00:38:40.000Z</time>
</trkpt>
<trkpt lat="50.512054" lon="6.909733">
<ele>277</ele>
<time>2010-01-01T00:38:54.000Z</time>
</trkpt>
<trkpt lat="50.512076" lon="6.909693">
<ele>278</ele>
<time>2010-01-01T00:38:55.000Z</time>
</trkpt>
<trkpt lat="50.512092" lon="6.909515">
<ele>277</ele>
<time>2010-01-01T00:39:00.000Z</time>
</trkpt>
<trkpt lat="50.512134" lon="6.909402">
<ele>277</ele>
<time>2010-01-01T00:39:03.000Z</time>
</trkpt>
<trkpt lat="50.512145" lon="6.909299">
<ele>277</ele>
<time>2010-01-01T00:39:06.000Z</time>
</trkpt>
<trkpt lat="50.512211" lon="6.909013">
<ele>277</ele>
<time>2010-01-01T00:39:14.000Z</time>
</trkpt>
<trkpt lat="50.512248" lon="6.908908">
<ele>278</ele>
<time>2010-01-01T00:39:17.000Z</time>
</trkpt>
<trkpt lat="50.512283" lon="6.908688">
<ele>278</ele>
<time>2010-01-01T00:39:22.000Z</time>
</trkpt>
<trkpt lat="50.512329" lon="6.908503">
<ele>278</ele>
<time>2010-01-01T00:39:27.000Z</time>
</trkpt>
<trkpt lat="50.512444" lon="6.908154">
<ele>277</ele>
<time>2010-01-01T00:39:37.000Z</time>
</trkpt>
<trkpt lat="50.512538" lon="6.907544">
<ele>270</ele>
<time>2010-01-01T00:39:53.000Z</time>
</trkpt>
<trkpt lat="50.512615" lon="6.907593">
<ele>273</ele>
<time>2010-01-01T00:39:57.000Z</time>
</trkpt>
<trkpt lat="50.51269" lon="6.907508">
<ele>274</ele>
<time>2010-01-01T00:40:00.000Z</time>
</trkpt>
<trkpt lat="50.512881" lon="6.907196">
<ele>277</ele>
<time>2010-01-01T00:40:12.000Z</time>
</trkpt>
<trkpt lat="50.512928" lon="6.907059">
<ele>276</ele>
<time>2010-01-01T00:40:15.000Z</time>
</trkpt>
<trkpt lat="50.513004" lon="6.906925">
<ele>277</ele>
<time>2010-01-01T00:40:20.000Z</time>
</trkpt>
<trkpt lat="50.513058" lon="6.906764">
<ele>277</ele>
<time>2010-01-01T00:40:25.000Z</time>
</trkpt>
<trkpt lat="50.513119" lon="6.906636">
<ele>277</ele>
<time>2010-01-01T00:40:29.000Z</time>
</trkpt>
<trkpt lat="50.513328" lon="6.906369">
<ele>276</ele>
<time>2010-01-01T00:40:40.000Z</time>
</trkpt>
<trkpt lat="50.5134" lon="6.906225">
<ele>275</ele>
<time>2010-01-01T00:40:44.000Z</time>
</trkpt>
<trkpt lat="50.513462" lon="6.906013">
<ele>271</ele>
<time>2010-01-01T00:40:50.000Z</time>
</trkpt>
<trkpt lat="50.513504" lon="6.905921">
<ele>270</ele>
<time>2010-01-01T00:40:53.000Z</time>
</trkpt>
<trkpt lat="50.513634" lon="6.905865">
<ele>272</ele>
<time>2010-01-01T00:40:58.000Z</time>
</trkpt>
<trkpt lat="50.513821" lon="6.905735">
<ele>275</ele>
<time>2010-01-01T00:41:07.000Z</time>
</trkpt>
<trkpt lat="50.514008" lon="6.90568">
<ele>279</ele>
<time>2010-01-01T00:41:14.000Z</time>
</trkpt>
<trkpt lat="50.514113" lon="6.905619">
<ele>281</ele>
<time>2010-01-01T00:41:19.000Z</time>
</trkpt>
<trkpt lat="50.51419" lon="6.905641">
<ele>283</ele>
<time>2010-01-01T00:41:22.000Z</time>
</trkpt>
<trkpt lat="50.514258" lon="6.905684">
<ele>286</ele>
<time>2010-01-01T00:41:25.000Z</time>
</trkpt>
<trkpt lat="50.514415" lon="6.905686">
<ele>291</ele>
<time>2010-01-01T00:41:31.000Z</time>
</trkpt>
<trkpt lat="50.51443" lon="6.905603">
<ele>289</ele>
<time>2010-01-01T00:41:33.000Z</time>
</trkpt>
<trkpt lat="50.514454" lon="6.905542">
<ele>288</ele>
<time>2010-01-01T00:41:35.000Z</time>
</trkpt>
<trkpt lat="50.514464" lon="6.905554">
<ele>289</ele>
<time>2010-01-01T00:41:36.000Z</time>
</trkpt>
<trkpt lat="50.514473" lon="6.905497">
<ele>288</ele>
<time>2010-01-01T00:41:37.000Z</time>
</trkpt>
<trkpt lat="50.514458" lon="6.905482">
<ele>287</ele>
<time>2010-01-01T00:41:38.000Z</time>
</trkpt>
<trkpt lat="50.514461" lon="6.905434">
<ele>286</ele>
<time>2010-01-01T00:41:39.000Z</time>
</trkpt>
<trkpt lat="50.514419" lon="6.905401">
<ele>284</ele>
<time>2010-01-01T00:41:41.000Z</time>
</trkpt>
<trkpt lat="50.514415" lon="6.905376">
<ele>283</ele>
<time>2010-01-01T00:41:42.000Z</time>
</trkpt>
<trkpt lat="50.514427" lon="6.905427">
<ele>285</ele>
<time>2010-01-01T00:41:43.000Z</time>
</trkpt>
<trkpt lat="50.514415" lon="6.905376">
<ele>283</ele>
<time>2010-01-01T00:41:44.000Z</time>
</trkpt>
<trkpt lat="50.514506" lon="6.905137">
<ele>279</ele>
<time>2010-01-01T00:41:51.000Z</time>
</trkpt>
<trkpt lat="50.514545" lon="6.905076">
<ele>278</ele>
<time>2010-01-01T00:41:54.000Z</time>
</trkpt>
<trkpt lat="50.514626" lon="6.905005">
<ele>278</ele>
<time>2010-01-01T00:41:57.000Z</time>
</trkpt>
<trkpt lat="50.514892" lon="6.90491">
<ele>281</ele>
<time>2010-01-01T00:42:08.000Z</time>
</trkpt>
<trkpt lat="50.514979" lon="6.904917">
<ele>282</ele>
<time>2010-01-01T00:42:12.000Z</time>
</trkpt>
<trkpt lat="50.515232" lon="6.904748">
<ele>282</ele>
<time>2010-01-01T00:42:23.000Z</time>
</trkpt>
<trkpt lat="50.515342" lon="6.904704">
<ele>282</ele>
<time>2010-01-01T00:42:27.000Z</time>
</trkpt>
<trkpt lat="50.515609" lon="6.904524">
<ele>280</ele>
<time>2010-01-01T00:42:39.000Z</time>
</trkpt>
<trkpt lat="50.515762" lon="6.904452">
<ele>280</ele>
<time>2010-01-01T00:42:45.000Z</time>
</trkpt>
<trkpt lat="50.515971" lon="6.904428">
<ele>278</ele>
<time>2010-01-01T00:42:54.000Z</time>
</trkpt>
<trkpt lat="50.51604" lon="6.904435">
<ele>278</ele>
<time>2010-01-01T00:42:57.000Z</time>
</trkpt>
<trkpt lat="50.516209" lon="6.904502">
<ele>278</ele>
<time>2010-01-01T00:43:03.000Z</time>
</trkpt>
<trkpt lat="50.51633" lon="6.904624">
<ele>280</ele>
<time>2010-01-01T00:43:09.000Z</time>
</trkpt>
<trkpt lat="50.516411" lon="6.904731">
<ele>281</ele>
<time>2010-01-01T00:43:13.000Z</time>
</trkpt>
<trkpt lat="50.516495" lon="6.904885">
<ele>284</ele>
<time>2010-01-01T00:43:19.000Z</time>
</trkpt>
<trkpt lat="50.516552" lon="6.905019">
<ele>286</ele>
<time>2010-01-01T00:43:23.000Z</time>
</trkpt>
<trkpt lat="50.516574" lon="6.905119">
<ele>289</ele>
<time>2010-01-01T00:43:25.000Z</time>
</trkpt>
<trkpt lat="50.516655" lon="6.905286">
<ele>294</ele>
<time>2010-01-01T00:43:31.000Z</time>
</trkpt>
<trkpt lat="50.517051" lon="6.905879">
<ele>297</ele>
<time>2010-01-01T00:43:53.000Z</time>
</trkpt>
<trkpt lat="50.517303" lon="6.906137">
<ele>293</ele>
<time>2010-01-01T00:44:05.000Z</time>
</trkpt>
<trkpt lat="50.517554" lon="6.906357">
<ele>290</ele>
<time>2010-01-01T00:44:16.000Z</time>
</trkpt>
<trkpt lat="50.517677" lon="6.906402">
<ele>290</ele>
<time>2010-01-01T00:44:21.000Z</time>
</trkpt>
<trkpt lat="50.517886" lon="6.906436">
<ele>288</ele>
<time>2010-01-01T00:44:30.000Z</time>
</trkpt>
<trkpt lat="50.518058" lon="6.906518">
<ele>288</ele>
<time>2010-01-01T00:44:37.000Z</time>
</trkpt>
<trkpt lat="50.518115" lon="6.906531">
<ele>287</ele>
<time>2010-01-01T00:44:39.000Z</time>
</trkpt>
<trkpt lat="50.518497" lon="6.90623">
<ele>281</ele>
<time>2010-01-01T00:44:56.000Z</time>
</trkpt>
<trkpt lat="50.518634" lon="6.906001">
<ele>280</ele>
<time>2010-01-01T00:45:04.000Z</time>
</trkpt>
<trkpt lat="50.518642" lon="6.905954">
<ele>280</ele>
<time>2010-01-01T00:45:06.000Z</time>
</trkpt>
<trkpt lat="50.518592" lon="6.905867">
<ele>277</ele>
<time>2010-01-01T00:45:08.000Z</time>
</trkpt>
<trkpt lat="50.518585" lon="6.90578">
<ele>277</ele>
<time>2010-01-01T00:45:11.000Z</time>
</trkpt>
<trkpt lat="50.518753" lon="6.905623">
<ele>279</ele>
<time>2010-01-01T00:45:19.000Z</time>
</trkpt>
<trkpt lat="50.518768" lon="6.905632">
<ele>280</ele>
<time>2010-01-01T00:45:19.000Z</time>
</trkpt>
<trkpt lat="50.518836" lon="6.905598">
<ele>281</ele>
<time>2010-01-01T00:45:22.000Z</time>
</trkpt>
<trkpt lat="50.518799" lon="6.905599">
<ele>280</ele>
<time>2010-01-01T00:45:24.000Z</time>
</trkpt>
<trkpt lat="50.518826" lon="6.905618">
<ele>281</ele>
<time>2010-01-01T00:45:25.000Z</time>
</trkpt>
<trkpt lat="50.518821" lon="6.905694">
<ele>281</ele>
<time>2010-01-01T00:45:27.000Z</time>
</trkpt>
<trkpt lat="50.518802" lon="6.905767">
<ele>281</ele>
<time>2010-01-01T00:45:29.000Z</time>
</trkpt>
<trkpt lat="50.518779" lon="6.9058">
<ele>281</ele>
<time>2010-01-01T00:45:30.000Z</time>
</trkpt>
<trkpt lat="50.51879" lon="6.905879">
<ele>282</ele>
<time>2010-01-01T00:45:32.000Z</time>
</trkpt>
<trkpt lat="50.518913" lon="6.906149">
<ele>287</ele>
<time>2010-01-01T00:45:40.000Z</time>
</trkpt>
<trkpt lat="50.51892" lon="6.905389">
<ele>281</ele>
<time>2010-01-01T00:46:00.000Z</time>
</trkpt>
<trkpt lat="50.518959" lon="6.905341">
<ele>281</ele>
<time>2010-01-01T00:46:02.000Z</time>
</trkpt>
<trkpt lat="50.5191" lon="6.905291">
<ele>283</ele>
<time>2010-01-01T00:46:08.000Z</time>
</trkpt>
<trkpt lat="50.519142" lon="6.905324">
<ele>284</ele>
<time>2010-01-01T00:46:09.000Z</time>
</trkpt>
<trkpt lat="50.519179" lon="6.905244">
<ele>283</ele>
<time>2010-01-01T00:46:12.000Z</time>
</trkpt>
<trkpt lat="50.51936" lon="6.904978">
<ele>287</ele>
<time>2010-01-01T00:46:22.000Z</time>
</trkpt>
<trkpt lat="50.519447" lon="6.904787">
<ele>287</ele>
<time>2010-01-01T00:46:28.000Z</time>
</trkpt>
<trkpt lat="50.519547" lon="6.904702">
<ele>289</ele>
<time>2010-01-01T00:46:32.000Z</time>
</trkpt>
<trkpt lat="50.519558" lon="6.904634">
<ele>289</ele>
<time>2010-01-01T00:46:34.000Z</time>
</trkpt>
<trkpt lat="50.519691" lon="6.90434">
<ele>288</ele>
<time>2010-01-01T00:46:43.000Z</time>
</trkpt>
<trkpt lat="50.519688" lon="6.904284">
<ele>287</ele>
<time>2010-01-01T00:46:45.000Z</time>
</trkpt>
<trkpt lat="50.519745" lon="6.904212">
<ele>287</ele>
<time>2010-01-01T00:46:48.000Z</time>
</trkpt>
<trkpt lat="50.519824" lon="6.903926">
<ele>286</ele>
<time>2010-01-01T00:46:56.000Z</time>
</trkpt>
<trkpt lat="50.519866" lon="6.903843">
<ele>287</ele>
<time>2010-01-01T00:46:58.000Z</time>
</trkpt>
<trkpt lat="50.519881" lon="6.903753">
<ele>286</ele>
<time>2010-01-01T00:47:01.000Z</time>
</trkpt>
<trkpt lat="50.519932" lon="6.903681">
<ele>287</ele>
<time>2010-01-01T00:47:03.000Z</time>
</trkpt>
<trkpt lat="50.519969" lon="6.903546">
<ele>286</ele>
<time>2010-01-01T00:47:07.000Z</time>
</trkpt>
<trkpt lat="50.520125" lon="6.903357">
<ele>291</ele>
<time>2010-01-01T00:47:15.000Z</time>
</trkpt>
<trkpt lat="50.520206" lon="6.903184">
<ele>293</ele>
<time>2010-01-01T00:47:21.000Z</time>
</trkpt>
<trkpt lat="50.52021" lon="6.902922">
<ele>291</ele>
<time>2010-01-01T00:47:27.000Z</time>
</trkpt>
<trkpt lat="50.520232" lon="6.902764">
<ele>291</ele>
<time>2010-01-01T00:47:31.000Z</time>
</trkpt>
<trkpt lat="50.52034" lon="6.902498">
<ele>293</ele>
<time>2010-01-01T00:47:39.000Z</time>
</trkpt>
<trkpt lat="50.520419" lon="6.902429">
<ele>296</ele>
<time>2010-01-01T00:47:43.000Z</time>
</trkpt>
<trkpt lat="50.520454" lon="6.902307">
<ele>297</ele>
<time>2010-01-01T00:47:46.000Z</time>
</trkpt>
<trkpt lat="50.520461" lon="6.902205">
<ele>297</ele>
<time>2010-01-01T00:47:49.000Z</time>
</trkpt>
<trkpt lat="50.520499" lon="6.902112">
<ele>298</ele>
<time>2010-01-01T00:47:52.000Z</time>
</trkpt>
<trkpt lat="50.520512" lon="6.901897">
<ele>298</ele>
<time>2010-01-01T00:47:57.000Z</time>
</trkpt>
<trkpt lat="50.520542" lon="6.901792">
<ele>298</ele>
<time>2010-01-01T00:48:00.000Z</time>
</trkpt>
<trkpt lat="50.520556" lon="6.901618">
<ele>298</ele>
<time>2010-01-01T00:48:05.000Z</time>
</trkpt>
<trkpt lat="50.520599" lon="6.901558">
<ele>299</ele>
<time>2010-01-01T00:48:07.000Z</time>
</trkpt>
<trkpt lat="50.520659" lon="6.901409">
<ele>300</ele>
<time>2010-01-01T00:48:12.000Z</time>
</trkpt>
<trkpt lat="50.520663" lon="6.901323">
<ele>300</ele>
<time>2010-01-01T00:48:14.000Z</time>
</trkpt>
<trkpt lat="50.520725" lon="6.901198">
<ele>301</ele>
<time>2010-01-01T00:48:18.000Z</time>
</trkpt>
<trkpt lat="50.520798" lon="6.901203">
<ele>303</ele>
<time>2010-01-01T00:48:21.000Z</time>
</trkpt>
<trkpt lat="50.520831" lon="6.901099">
<ele>304</ele>
<time>2010-01-01T00:48:24.000Z</time>
</trkpt>
<trkpt lat="50.520846" lon="6.900998">
<ele>303</ele>
<time>2010-01-01T00:48:26.000Z</time>
</trkpt>
<trkpt lat="50.520846" lon="6.900834">
<ele>302</ele>
<time>2010-01-01T00:48:30.000Z</time>
</trkpt>
<trkpt lat="50.520888" lon="6.900721">
<ele>302</ele>
<time>2010-01-01T00:48:34.000Z</time>
</trkpt>
<trkpt lat="50.520924" lon="6.900645">
<ele>301</ele>
<time>2010-01-01T00:48:36.000Z</time>
</trkpt>
<trkpt lat="50.521106" lon="6.900422">
<ele>301</ele>
<time>2010-01-01T00:48:45.000Z</time>
</trkpt>
<trkpt lat="50.521175" lon="6.900362">
<ele>300</ele>
<time>2010-01-01T00:48:49.000Z</time>
</trkpt>
<trkpt lat="50.521247" lon="6.900248">
<ele>299</ele>
<time>2010-01-01T00:48:53.000Z</time>
</trkpt>
<trkpt lat="50.521271" lon="6.900183">
<ele>298</ele>
<time>2010-01-01T00:48:55.000Z</time>
</trkpt>
<trkpt lat="50.521332" lon="6.90012">
<ele>298</ele>
<time>2010-01-01T00:48:57.000Z</time>
</trkpt>
<trkpt lat="50.521422" lon="6.900099">
<ele>298</ele>
<time>2010-01-01T00:49:01.000Z</time>
</trkpt>
<trkpt lat="50.521503" lon="6.900057">
<ele>297</ele>
<time>2010-01-01T00:49:05.000Z</time>
</trkpt>
<trkpt lat="50.521522" lon="6.899979">
<ele>296</ele>
<time>2010-01-01T00:49:07.000Z</time>
</trkpt>
<trkpt lat="50.521552" lon="6.89996">
<ele>295</ele>
<time>2010-01-01T00:49:08.000Z</time>
</trkpt>
<trkpt lat="50.521633" lon="6.899999">
<ele>296</ele>
<time>2010-01-01T00:49:11.000Z</time>
</trkpt>
<trkpt lat="50.521542" lon="6.899857">
<ele>294</ele>
<time>2010-01-01T00:49:16.000Z</time>
</trkpt>
<trkpt lat="50.521545" lon="6.899878">
<ele>294</ele>
<time>2010-01-01T00:49:17.000Z</time>
</trkpt>
<trkpt lat="50.521648" lon="6.900001">
<ele>296</ele>
<time>2010-01-01T00:49:22.000Z</time>
</trkpt>
<trkpt lat="50.521838" lon="6.900158">
<ele>296</ele>
<time>2010-01-01T00:49:31.000Z</time>
</trkpt>
<trkpt lat="50.521884" lon="6.900249">
<ele>297</ele>
<time>2010-01-01T00:49:34.000Z</time>
</trkpt>
<trkpt lat="50.521953" lon="6.900324">
<ele>297</ele>
<time>2010-01-01T00:49:37.000Z</time>
</trkpt>
<trkpt lat="50.522106" lon="6.900418">
<ele>295</ele>
<time>2010-01-01T00:49:44.000Z</time>
</trkpt>
<trkpt lat="50.522251" lon="6.900469">
<ele>293</ele>
<time>2010-01-01T00:49:50.000Z</time>
</trkpt>
<trkpt lat="50.52233" lon="6.900515">
<ele>292</ele>
<time>2010-01-01T00:49:53.000Z</time>
</trkpt>
<trkpt lat="50.522368" lon="6.900501">
<ele>291</ele>
<time>2010-01-01T00:49:55.000Z</time>
</trkpt>
<trkpt lat="50.522392" lon="6.900575">
<ele>292</ele>
<time>2010-01-01T00:49:57.000Z</time>
</trkpt>
<trkpt lat="50.522372" lon="6.900718">
<ele>294</ele>
<time>2010-01-01T00:50:00.000Z</time>
</trkpt>
<trkpt lat="50.522377" lon="6.900924">
<ele>298</ele>
<time>2010-01-01T00:50:06.000Z</time>
</trkpt>
<trkpt lat="50.522247" lon="6.901454">
<ele>310</ele>
<time>2010-01-01T00:50:20.000Z</time>
</trkpt>
<trkpt lat="50.522266" lon="6.901625">
<ele>313</ele>
<time>2010-01-01T00:50:24.000Z</time>
</trkpt>
<trkpt lat="50.522288" lon="6.901656">
<ele>313</ele>
<time>2010-01-01T00:50:26.000Z</time>
</trkpt>
<trkpt lat="50.52233" lon="6.901813">
<ele>315</ele>
<time>2010-01-01T00:50:30.000Z</time>
</trkpt>
<trkpt lat="50.522438" lon="6.902021">
<ele>317</ele>
<time>2010-01-01T00:50:37.000Z</time>
</trkpt>
<trkpt lat="50.522522" lon="6.902267">
<ele>320</ele>
<time>2010-01-01T00:50:44.000Z</time>
</trkpt>
<trkpt lat="50.522564" lon="6.902496">
<ele>324</ele>
<time>2010-01-01T00:50:50.000Z</time>
</trkpt>
<trkpt lat="50.522555" lon="6.902562">
<ele>326</ele>
<time>2010-01-01T00:50:52.000Z</time>
</trkpt>
<trkpt lat="50.522594" lon="6.902563">
<ele>326</ele>
<time>2010-01-01T00:50:53.000Z</time>
</trkpt>
<trkpt lat="50.52261" lon="6.902646">
<ele>328</ele>
<time>2010-01-01T00:50:55.000Z</time>
</trkpt>
<trkpt lat="50.522586" lon="6.902876">
<ele>332</ele>
<time>2010-01-01T00:51:01.000Z</time>
</trkpt>
<trkpt lat="50.522652" lon="6.903018">
<ele>336</ele>
<time>2010-01-01T00:51:06.000Z</time>
</trkpt>
<trkpt lat="50.522724" lon="6.903234">
<ele>341</ele>
<time>2010-01-01T00:51:12.000Z</time>
</trkpt>
<trkpt lat="50.522781" lon="6.903264">
<ele>342</ele>
<time>2010-01-01T00:51:14.000Z</time>
</trkpt>
<trkpt lat="50.522887" lon="6.903274">
<ele>344</ele>
<time>2010-01-01T00:51:19.000Z</time>
</trkpt>
<trkpt lat="50.522926" lon="6.903523">
<ele>348</ele>
<time>2010-01-01T00:51:25.000Z</time>
</trkpt>
<trkpt lat="50.522968" lon="6.903556">
<ele>349</ele>
<time>2010-01-01T00:51:27.000Z</time>
</trkpt>
<trkpt lat="50.522953" lon="6.903834">
<ele>353</ele>
<time>2010-01-01T00:51:34.000Z</time>
</trkpt>
<trkpt lat="50.523002" lon="6.903917">
<ele>354</ele>
<time>2010-01-01T00:51:37.000Z</time>
</trkpt>
<trkpt lat="50.52298" lon="6.903942">
<ele>354</ele>
<time>2010-01-01T00:51:38.000Z</time>
</trkpt>
<trkpt lat="50.522915" lon="6.904181">
<ele>358</ele>
<time>2010-01-01T00:51:45.000Z</time>
</trkpt>
<trkpt lat="50.522819" lon="6.904428">
<ele>362</ele>
<time>2010-01-01T00:51:52.000Z</time>
</trkpt>
<trkpt lat="50.522842" lon="6.90449">
<ele>363</ele>
<time>2010-01-01T00:51:54.000Z</time>
</trkpt>
<trkpt lat="50.522865" lon="6.904252">
<ele>359</ele>
<time>2010-01-01T00:52:00.000Z</time>
</trkpt>
<trkpt lat="50.522891" lon="6.904189">
<ele>358</ele>
<time>2010-01-01T00:52:02.000Z</time>
</trkpt>
<trkpt lat="50.522944" lon="6.904181">
<ele>358</ele>
<time>2010-01-01T00:52:04.000Z</time>
</trkpt>
<trkpt lat="50.522972" lon="6.904136">
<ele>357</ele>
<time>2010-01-01T00:52:06.000Z</time>
</trkpt>
<trkpt lat="50.522929" lon="6.904081">
<ele>356</ele>
<time>2010-01-01T00:52:08.000Z</time>
</trkpt>
<trkpt lat="50.522953" lon="6.904067">
<ele>356</ele>
<time>2010-01-01T00:52:09.000Z</time>
</trkpt>
<trkpt lat="50.522953" lon="6.904083">
<ele>356</ele>
<time>2010-01-01T00:52:09.000Z</time>
</trkpt>
<trkpt lat="50.52298" lon="6.904082">
<ele>356</ele>
<time>2010-01-01T00:52:10.000Z</time>
</trkpt>
<trkpt lat="50.523113" lon="6.904015">
<ele>355</ele>
<time>2010-01-01T00:52:16.000Z</time>
</trkpt>
<trkpt lat="50.523204" lon="6.903927">
<ele>354</ele>
<time>2010-01-01T00:52:20.000Z</time>
</trkpt>
<trkpt lat="50.52325" lon="6.903842">
<ele>353</ele>
<time>2010-01-01T00:52:23.000Z</time>
</trkpt>
<trkpt lat="50.52327" lon="6.90375">
<ele>353</ele>
<time>2010-01-01T00:52:26.000Z</time>
</trkpt>
<trkpt lat="50.52327" lon="6.903706">
<ele>352</ele>
<time>2010-01-01T00:52:27.000Z</time>
</trkpt>
<trkpt lat="50.52317" lon="6.903472">
<ele>349</ele>
<time>2010-01-01T00:52:34.000Z</time>
</trkpt>
<trkpt lat="50.523177" lon="6.903449">
<ele>349</ele>
<time>2010-01-01T00:52:35.000Z</time>
</trkpt>
<trkpt lat="50.522957" lon="6.902838">
<ele>338</ele>
<time>2010-01-01T00:52:53.000Z</time>
</trkpt>
<trkpt lat="50.522887" lon="6.9026">
<ele>333</ele>
<time>2010-01-01T00:52:59.000Z</time>
</trkpt>
<trkpt lat="50.52286" lon="6.902544">
<ele>332</ele>
<time>2010-01-01T00:53:01.000Z</time>
</trkpt>
<trkpt lat="50.52283" lon="6.90254">
<ele>331</ele>
<time>2010-01-01T00:53:02.000Z</time>
</trkpt>
<trkpt lat="50.522834" lon="6.902457">
<ele>330</ele>
<time>2010-01-01T00:53:04.000Z</time>
</trkpt>
<trkpt lat="50.523047" lon="6.902077">
<ele>328</ele>
<time>2010-01-01T00:53:17.000Z</time>
</trkpt>
<trkpt lat="50.523204" lon="6.901764">
<ele>325</ele>
<time>2010-01-01T00:53:27.000Z</time>
</trkpt>
<trkpt lat="50.52325" lon="6.901756">
<ele>325</ele>
<time>2010-01-01T00:53:29.000Z</time>
</trkpt>
<trkpt lat="50.523418" lon="6.901473">
<ele>320</ele>
<time>2010-01-01T00:53:39.000Z</time>
</trkpt>
<trkpt lat="50.523861" lon="6.901434">
<ele>323</ele>
<time>2010-01-01T00:53:57.000Z</time>
</trkpt>
<trkpt lat="50.524043" lon="6.901481">
<ele>327</ele>
<time>2010-01-01T00:54:04.000Z</time>
</trkpt>
<trkpt lat="50.5241" lon="6.90147">
<ele>327</ele>
<time>2010-01-01T00:54:07.000Z</time>
</trkpt>
<trkpt lat="50.524184" lon="6.901489">
<ele>328</ele>
<time>2010-01-01T00:54:10.000Z</time>
</trkpt>
<trkpt lat="50.524211" lon="6.901504">
<ele>329</ele>
<time>2010-01-01T00:54:11.000Z</time>
</trkpt>
<trkpt lat="50.524215" lon="6.901532">
<ele>330</ele>
<time>2010-01-01T00:54:12.000Z</time>
</trkpt>
<trkpt lat="50.524215" lon="6.90149">
<ele>329</ele>
<time>2010-01-01T00:54:13.000Z</time>
</trkpt>
<trkpt lat="50.524226" lon="6.901503">
<ele>329</ele>
<time>2010-01-01T00:54:13.000Z</time>
</trkpt>
<trkpt lat="50.52431" lon="6.901484">
<ele>329</ele>
<time>2010-01-01T00:54:17.000Z</time>
</trkpt>
<trkpt lat="50.524425" lon="6.901539">
<ele>332</ele>
<time>2010-01-01T00:54:22.000Z</time>
</trkpt>
<trkpt lat="50.524497" lon="6.901595">
<ele>335</ele>
<time>2010-01-01T00:54:25.000Z</time>
</trkpt>
<trkpt lat="50.524551" lon="6.901596">
<ele>335</ele>
<time>2010-01-01T00:54:27.000Z</time>
</trkpt>
<trkpt lat="50.524657" lon="6.901625">
<ele>337</ele>
<time>2010-01-01T00:54:31.000Z</time>
</trkpt>
<trkpt lat="50.524799" lon="6.901619">
<ele>338</ele>
<time>2010-01-01T00:54:37.000Z</time>
</trkpt>
<trkpt lat="50.524917" lon="6.901672">
<ele>342</ele>
<time>2010-01-01T00:54:42.000Z</time>
</trkpt>
<trkpt lat="50.525124" lon="6.90169">
<ele>343</ele>
<time>2010-01-01T00:54:50.000Z</time>
</trkpt>
<trkpt lat="50.525432" lon="6.901825">
<ele>348</ele>
<time>2010-01-01T00:55:03.000Z</time>
</trkpt>
<trkpt lat="50.525619" lon="6.902037">
<ele>357</ele>
<time>2010-01-01T00:55:12.000Z</time>
</trkpt>
<trkpt lat="50.52568" lon="6.902142">
<ele>361</ele>
<time>2010-01-01T00:55:16.000Z</time>
</trkpt>
<trkpt lat="50.525757" lon="6.902198">
<ele>364</ele>
<time>2010-01-01T00:55:19.000Z</time>
</trkpt>
<trkpt lat="50.525845" lon="6.9022">
<ele>363</ele>
<time>2010-01-01T00:55:23.000Z</time>
</trkpt>
<trkpt lat="50.525954" lon="6.902158">
<ele>362</ele>
<time>2010-01-01T00:55:27.000Z</time>
</trkpt>
<trkpt lat="50.526038" lon="6.902099">
<ele>359</ele>
<time>2010-01-01T00:55:31.000Z</time>
</trkpt>
<trkpt lat="50.52615" lon="6.902043">
<ele>357</ele>
<time>2010-01-01T00:55:36.000Z</time>
</trkpt>
<trkpt lat="50.526234" lon="6.902028">
<ele>356</ele>
<time>2010-01-01T00:55:39.000Z</time>
</trkpt>
<trkpt lat="50.526337" lon="6.902056">
<ele>357</ele>
<time>2010-01-01T00:55:43.000Z</time>
</trkpt>
<trkpt lat="50.526469" lon="6.902151">
<ele>361</ele>
<time>2010-01-01T00:55:49.000Z</time>
</trkpt>
<trkpt lat="50.526623" lon="6.90223">
<ele>363</ele>
<time>2010-01-01T00:55:55.000Z</time>
</trkpt>
<trkpt lat="50.526707" lon="6.902306">
<ele>366</ele>
<time>2010-01-01T00:55:59.000Z</time>
</trkpt>
<trkpt lat="50.526798" lon="6.902431">
<ele>370</ele>
<time>2010-01-01T00:56:04.000Z</time>
</trkpt>
<trkpt lat="50.526909" lon="6.902511">
<ele>372</ele>
<time>2010-01-01T00:56:09.000Z</time>
</trkpt>
<trkpt lat="50.526955" lon="6.902706">
<ele>378</ele>
<time>2010-01-01T00:56:14.000Z</time>
</trkpt>
<trkpt lat="50.527027" lon="6.902824">
<ele>382</ele>
<time>2010-01-01T00:56:19.000Z</time>
</trkpt>
<trkpt lat="50.527081" lon="6.902959">
<ele>386</ele>
<time>2010-01-01T00:56:23.000Z</time>
</trkpt>
<trkpt lat="50.527133" lon="6.903009">
<ele>387</ele>
<time>2010-01-01T00:56:25.000Z</time>
</trkpt>
<trkpt lat="50.52719" lon="6.90302">
<ele>387</ele>
<time>2010-01-01T00:56:27.000Z</time>
</trkpt>
<trkpt lat="50.527278" lon="6.903009">
<ele>386</ele>
<time>2010-01-01T00:56:31.000Z</time>
</trkpt>
<trkpt lat="50.527588" lon="6.902818">
<ele>380</ele>
<time>2010-01-01T00:56:44.000Z</time>
</trkpt>
<trkpt lat="50.527699" lon="6.90274">
<ele>378</ele>
<time>2010-01-01T00:56:49.000Z</time>
</trkpt>
<trkpt lat="50.527771" lon="6.902665">
<ele>377</ele>
<time>2010-01-01T00:56:53.000Z</time>
</trkpt>
<trkpt lat="50.527988" lon="6.902403">
<ele>372</ele>
<time>2010-01-01T00:57:03.000Z</time>
</trkpt>
<trkpt lat="50.528091" lon="6.902375">
<ele>372</ele>
<time>2010-01-01T00:57:08.000Z</time>
</trkpt>
<trkpt lat="50.52813" lon="6.902389">
<ele>373</ele>
<time>2010-01-01T00:57:09.000Z</time>
</trkpt>
<trkpt lat="50.528167" lon="6.902435">
<ele>375</ele>
<time>2010-01-01T00:57:11.000Z</time>
</trkpt>
<trkpt lat="50.528202" lon="6.902534">
<ele>378</ele>
<time>2010-01-01T00:57:14.000Z</time>
</trkpt>
<trkpt lat="50.528254" lon="6.902826">
<ele>386</ele>
<time>2010-01-01T00:57:22.000Z</time>
</trkpt>
<trkpt lat="50.528305" lon="6.90302">
<ele>392</ele>
<time>2010-01-01T00:57:27.000Z</time>
</trkpt>
<trkpt lat="50.528399" lon="6.903244">
<ele>397</ele>
<time>2010-01-01T00:57:34.000Z</time>
</trkpt>
<trkpt lat="50.52838" lon="6.90332">
<ele>399</ele>
<time>2010-01-01T00:57:36.000Z</time>
</trkpt>
<trkpt lat="50.528453" lon="6.903523">
<ele>403</ele>
<time>2010-01-01T00:57:42.000Z</time>
</trkpt>
<trkpt lat="50.528606" lon="6.903691">
<ele>406</ele>
<time>2010-01-01T00:57:49.000Z</time>
</trkpt>
<trkpt lat="50.528805" lon="6.903819">
<ele>407</ele>
<time>2010-01-01T00:57:58.000Z</time>
</trkpt>
<trkpt lat="50.528954" lon="6.904025">
<ele>412</ele>
<time>2010-01-01T00:58:06.000Z</time>
</trkpt>
<trkpt lat="50.529083" lon="6.904246">
<ele>416</ele>
<time>2010-01-01T00:58:14.000Z</time>
</trkpt>
<trkpt lat="50.529159" lon="6.904447">
<ele>420</ele>
<time>2010-01-01T00:58:20.000Z</time>
</trkpt>
<trkpt lat="50.529224" lon="6.904518">
<ele>420</ele>
<time>2010-01-01T00:58:23.000Z</time>
</trkpt>
<trkpt lat="50.529242" lon="6.904719">
<ele>424</ele>
<time>2010-01-01T00:58:28.000Z</time>
</trkpt>
<trkpt lat="50.529349" lon="6.905023">
<ele>428</ele>
<time>2010-01-01T00:58:37.000Z</time>
</trkpt>
<trkpt lat="50.529349" lon="6.905139">
<ele>430</ele>
<time>2010-01-01T00:58:40.000Z</time>
</trkpt>
<trkpt lat="50.529411" lon="6.90531">
<ele>431</ele>
<time>2010-01-01T00:58:45.000Z</time>
</trkpt>
<trkpt lat="50.529464" lon="6.905409">
<ele>432</ele>
<time>2010-01-01T00:58:48.000Z</time>
</trkpt>
<trkpt lat="50.52949" lon="6.905592">
<ele>434</ele>
<time>2010-01-01T00:58:53.000Z</time>
</trkpt>
<trkpt lat="50.529572" lon="6.905902">
<ele>437</ele>
<time>2010-01-01T00:59:01.000Z</time>
</trkpt>
<trkpt lat="50.529559" lon="6.906459">
<ele>444</ele>
<time>2010-01-01T00:59:15.000Z</time>
</trkpt>
<trkpt lat="50.529662" lon="6.906927">
<ele>445</ele>
<time>2010-01-01T00:59:28.000Z</time>
</trkpt>
<trkpt lat="50.529659" lon="6.90711">
<ele>447</ele>
<time>2010-01-01T00:59:33.000Z</time>
</trkpt>
<trkpt lat="50.52978" lon="6.907555">
<ele>447</ele>
<time>2010-01-01T00:59:45.000Z</time>
</trkpt>
<trkpt lat="50.529831" lon="6.907882">
<ele>448</ele>
<time>2010-01-01T00:59:54.000Z</time>
</trkpt>
<trkpt lat="50.529864" lon="6.907961">
<ele>447</ele>
<time>2010-01-01T00:59:56.000Z</time>
</trkpt>
<trkpt lat="50.529906" lon="6.908158">
<ele>447</ele>
<time>2010-01-01T01:00:01.000Z</time>
</trkpt>
<trkpt lat="50.529976" lon="6.908555">
<ele>447</ele>
<time>2010-01-01T01:00:12.000Z</time>
</trkpt>
<trkpt lat="50.52999" lon="6.908987">
<ele>448</ele>
<time>2010-01-01T01:00:23.000Z</time>
</trkpt>
<trkpt lat="50.53006" lon="6.90921">
<ele>447</ele>
<time>2010-01-01T01:00:29.000Z</time>
</trkpt>
<trkpt lat="50.530056" lon="6.909325">
<ele>447</ele>
<time>2010-01-01T01:00:32.000Z</time>
</trkpt>
<trkpt lat="50.530029" lon="6.909481">
<ele>448</ele>
<time>2010-01-01T01:00:36.000Z</time>
</trkpt>
<trkpt lat="50.529999" lon="6.909551">
<ele>448</ele>
<time>2010-01-01T01:00:38.000Z</time>
</trkpt>
<trkpt lat="50.529963" lon="6.909751">
<ele>449</ele>
<time>2010-01-01T01:00:44.000Z</time>
</trkpt>
<trkpt lat="50.529864" lon="6.910084">
<ele>451</ele>
<time>2010-01-01T01:00:53.000Z</time>
</trkpt>
<trkpt lat="50.5298" lon="6.91036">
<ele>449</ele>
<time>2010-01-01T01:01:00.000Z</time>
</trkpt>
<trkpt lat="50.529602" lon="6.910828">
<ele>451</ele>
<time>2010-01-01T01:01:15.000Z</time>
</trkpt>
<trkpt lat="50.529292" lon="6.911735">
<ele>447</ele>
<time>2010-01-01T01:01:41.000Z</time>
</trkpt>
<trkpt lat="50.529132" lon="6.912139">
<ele>445</ele>
<time>2010-01-01T01:01:53.000Z</time>
</trkpt>
<trkpt lat="50.529059" lon="6.91243">
<ele>441</ele>
<time>2010-01-01T01:02:01.000Z</time>
</trkpt>
<trkpt lat="50.528998" lon="6.912804">
<ele>437</ele>
<time>2010-01-01T01:02:11.000Z</time>
</trkpt>
<trkpt lat="50.528984" lon="6.912827">
<ele>437</ele>
<time>2010-01-01T01:02:12.000Z</time>
</trkpt>
<trkpt lat="50.528972" lon="6.912966">
<ele>436</ele>
<time>2010-01-01T01:02:15.000Z</time>
</trkpt>
<trkpt lat="50.528987" lon="6.912914">
<ele>437</ele>
<time>2010-01-01T01:02:17.000Z</time>
</trkpt>
<trkpt lat="50.528987" lon="6.912985">
<ele>436</ele>
<time>2010-01-01T01:02:18.000Z</time>
</trkpt>
<trkpt lat="50.528842" lon="6.914027">
<ele>432</ele>
<time>2010-01-01T01:02:46.000Z</time>
</trkpt>
<trkpt lat="50.528815" lon="6.914083">
<ele>432</ele>
<time>2010-01-01T01:02:47.000Z</time>
</trkpt>
<trkpt lat="50.528763" lon="6.91438">
<ele>432</ele>
<time>2010-01-01T01:02:55.000Z</time>
</trkpt>
<trkpt lat="50.528721" lon="6.914438">
<ele>433</ele>
<time>2010-01-01T01:02:57.000Z</time>
</trkpt>
<trkpt lat="50.528457" lon="6.914454">
<ele>434</ele>
<time>2010-01-01T01:03:08.000Z</time>
</trkpt>
<trkpt lat="50.528357" lon="6.914439">
<ele>435</ele>
<time>2010-01-01T01:03:12.000Z</time>
</trkpt>
<trkpt lat="50.528244" lon="6.914467">
<ele>435</ele>
<time>2010-01-01T01:03:17.000Z</time>
</trkpt>
<trkpt lat="50.528133" lon="6.914462">
<ele>436</ele>
<time>2010-01-01T01:03:21.000Z</time>
</trkpt>
<trkpt lat="50.527949" lon="6.91448">
<ele>438</ele>
<time>2010-01-01T01:03:28.000Z</time>
</trkpt>
<trkpt lat="50.527965" lon="6.914483">
<ele>438</ele>
<time>2010-01-01T01:03:29.000Z</time>
</trkpt>
<trkpt lat="50.527962" lon="6.914466">
<ele>438</ele>
<time>2010-01-01T01:03:30.000Z</time>
</trkpt>
<trkpt lat="50.527943" lon="6.914463">
<ele>438</ele>
<time>2010-01-01T01:03:30.000Z</time>
</trkpt>
<trkpt lat="50.527747" lon="6.914471">
<ele>439</ele>
<time>2010-01-01T01:03:38.000Z</time>
</trkpt>
<trkpt lat="50.527724" lon="6.914497">
<ele>440</ele>
<time>2010-01-01T01:03:39.000Z</time>
</trkpt>
<trkpt lat="50.527702" lon="6.914595">
<ele>440</ele>
<time>2010-01-01T01:03:42.000Z</time>
</trkpt>
<trkpt lat="50.52769" lon="6.914844">
<ele>440</ele>
<time>2010-01-01T01:03:48.000Z</time>
</trkpt>
<trkpt lat="50.527756" lon="6.915117">
<ele>440</ele>
<time>2010-01-01T01:03:56.000Z</time>
</trkpt>
<trkpt lat="50.527839" lon="6.915585">
<ele>440</ele>
<time>2010-01-01T01:04:08.000Z</time>
</trkpt>
<trkpt lat="50.527943" lon="6.915997">
<ele>441</ele>
<time>2010-01-01T01:04:19.000Z</time>
</trkpt>
<trkpt lat="50.527958" lon="6.916219">
<ele>442</ele>
<time>2010-01-01T01:04:25.000Z</time>
</trkpt>
<trkpt lat="50.527995" lon="6.916462">
<ele>443</ele>
<time>2010-01-01T01:04:31.000Z</time>
</trkpt>
<trkpt lat="50.528015" lon="6.917009">
<ele>445</ele>
<time>2010-01-01T01:04:45.000Z</time>
</trkpt>
<trkpt lat="50.528007" lon="6.917197">
<ele>445</ele>
<time>2010-01-01T01:04:50.000Z</time>
</trkpt>
<trkpt lat="50.528041" lon="6.91732">
<ele>446</ele>
<time>2010-01-01T01:04:54.000Z</time>
</trkpt>
<trkpt lat="50.528037" lon="6.917431">
<ele>446</ele>
<time>2010-01-01T01:04:56.000Z</time>
</trkpt>
<trkpt lat="50.528151" lon="6.917746">
<ele>446</ele>
<time>2010-01-01T01:05:06.000Z</time>
</trkpt>
<trkpt lat="50.528167" lon="6.917924">
<ele>445</ele>
<time>2010-01-01T01:05:10.000Z</time>
</trkpt>
<trkpt lat="50.528145" lon="6.918362">
<ele>443</ele>
<time>2010-01-01T01:05:21.000Z</time>
</trkpt>
<trkpt lat="50.528187" lon="6.918464">
<ele>443</ele>
<time>2010-01-01T01:05:24.000Z</time>
</trkpt>
<trkpt lat="50.528213" lon="6.918928">
<ele>442</ele>
<time>2010-01-01T01:05:36.000Z</time>
</trkpt>
<trkpt lat="50.528197" lon="6.919071">
<ele>442</ele>
<time>2010-01-01T01:05:40.000Z</time>
</trkpt>
<trkpt lat="50.528182" lon="6.919733">
<ele>440</ele>
<time>2010-01-01T01:05:57.000Z</time>
</trkpt>
<trkpt lat="50.528155" lon="6.919933">
<ele>439</ele>
<time>2010-01-01T01:06:02.000Z</time>
</trkpt>
<trkpt lat="50.528136" lon="6.920503">
<ele>439</ele>
<time>2010-01-01T01:06:17.000Z</time>
</trkpt>
<trkpt lat="50.528136" lon="6.921313">
<ele>440</ele>
<time>2010-01-01T01:06:37.000Z</time>
</trkpt>
<trkpt lat="50.528118" lon="6.921385">
<ele>441</ele>
<time>2010-01-01T01:06:39.000Z</time>
</trkpt>
<trkpt lat="50.528088" lon="6.921423">
<ele>441</ele>
<time>2010-01-01T01:06:41.000Z</time>
</trkpt>
<trkpt lat="50.52798" lon="6.921452">
<ele>440</ele>
<time>2010-01-01T01:06:45.000Z</time>
</trkpt>
<trkpt lat="50.527885" lon="6.921428">
<ele>440</ele>
<time>2010-01-01T01:06:49.000Z</time>
</trkpt>
<trkpt lat="50.527817" lon="6.921445">
<ele>440</ele>
<time>2010-01-01T01:06:52.000Z</time>
</trkpt>
<trkpt lat="50.527588" lon="6.921463">
<ele>439</ele>
<time>2010-01-01T01:07:01.000Z</time>
</trkpt>
<trkpt lat="50.527522" lon="6.921488">
<ele>439</ele>
<time>2010-01-01T01:07:04.000Z</time>
</trkpt>
<trkpt lat="50.527439" lon="6.921597">
<ele>438</ele>
<time>2010-01-01T01:07:08.000Z</time>
</trkpt>
<trkpt lat="50.527386" lon="6.92173">
<ele>438</ele>
<time>2010-01-01T01:07:12.000Z</time>
</trkpt>
<trkpt lat="50.527163" lon="6.922179">
<ele>437</ele>
<time>2010-01-01T01:07:26.000Z</time>
</trkpt>
<trkpt lat="50.526993" lon="6.922577">
<ele>435</ele>
<time>2010-01-01T01:07:39.000Z</time>
</trkpt>
<trkpt lat="50.526981" lon="6.922693">
<ele>435</ele>
<time>2010-01-01T01:07:42.000Z</time>
</trkpt>
<trkpt lat="50.527023" lon="6.922934">
<ele>436</ele>
<time>2010-01-01T01:07:48.000Z</time>
</trkpt>
<trkpt lat="50.527168" lon="6.923505">
<ele>437</ele>
<time>2010-01-01T01:08:04.000Z</time>
</trkpt>
<trkpt lat="50.527175" lon="6.923646">
<ele>437</ele>
<time>2010-01-01T01:08:07.000Z</time>
</trkpt>
<trkpt lat="50.527199" lon="6.923728">
<ele>438</ele>
<time>2010-01-01T01:08:09.000Z</time>
</trkpt>
<trkpt lat="50.527355" lon="6.924012">
<ele>440</ele>
<time>2010-01-01T01:08:19.000Z</time>
</trkpt>
<trkpt lat="50.527473" lon="6.924533">
<ele>441</ele>
<time>2010-01-01T01:08:33.000Z</time>
</trkpt>
<trkpt lat="50.527515" lon="6.92462">
<ele>441</ele>
<time>2010-01-01T01:08:36.000Z</time>
</trkpt>
<trkpt lat="50.527564" lon="6.924637">
<ele>441</ele>
<time>2010-01-01T01:08:38.000Z</time>
</trkpt>
<trkpt lat="50.527709" lon="6.924878">
<ele>441</ele>
<time>2010-01-01T01:08:46.000Z</time>
</trkpt>
<trkpt lat="50.527739" lon="6.925051">
<ele>441</ele>
<time>2010-01-01T01:08:51.000Z</time>
</trkpt>
<trkpt lat="50.527747" lon="6.925508">
<ele>441</ele>
<time>2010-01-01T01:09:03.000Z</time>
</trkpt>
<trkpt lat="50.527762" lon="6.925649">
<ele>441</ele>
<time>2010-01-01T01:09:06.000Z</time>
</trkpt>
<trkpt lat="50.527881" lon="6.926379">
<ele>441</ele>
<time>2010-01-01T01:09:25.000Z</time>
</trkpt>
<trkpt lat="50.52798" lon="6.926886">
<ele>440</ele>
<time>2010-01-01T01:09:39.000Z</time>
</trkpt>
<trkpt lat="50.528022" lon="6.927344">
<ele>440</ele>
<time>2010-01-01T01:09:51.000Z</time>
</trkpt>
<trkpt lat="50.528026" lon="6.927624">
<ele>439</ele>
<time>2010-01-01T01:09:58.000Z</time>
</trkpt>
<trkpt lat="50.528034" lon="6.927605">
<ele>439</ele>
<time>2010-01-01T01:09:58.000Z</time>
</trkpt>
<trkpt lat="50.527901" lon="6.928091">
<ele>439</ele>
<time>2010-01-01T01:10:12.000Z</time>
</trkpt>
<trkpt lat="50.527781" lon="6.928304">
<ele>438</ele>
<time>2010-01-01T01:10:19.000Z</time>
</trkpt>
<trkpt lat="50.527736" lon="6.928602">
<ele>438</ele>
<time>2010-01-01T01:10:27.000Z</time>
</trkpt>
<trkpt lat="50.527714" lon="6.928662">
<ele>438</ele>
<time>2010-01-01T01:10:29.000Z</time>
</trkpt>
<trkpt lat="50.527584" lon="6.928748">
<ele>438</ele>
<time>2010-01-01T01:10:34.000Z</time>
</trkpt>
<trkpt lat="50.527408" lon="6.92889">
<ele>437</ele>
<time>2010-01-01T01:10:42.000Z</time>
</trkpt>
<trkpt lat="50.527229" lon="6.929105">
<ele>435</ele>
<time>2010-01-01T01:10:51.000Z</time>
</trkpt>
<trkpt lat="50.527153" lon="6.929216">
<ele>435</ele>
<time>2010-01-01T01:10:55.000Z</time>
</trkpt>
<trkpt lat="50.527069" lon="6.929378">
<ele>435</ele>
<time>2010-01-01T01:11:01.000Z</time>
</trkpt>
<trkpt lat="50.526889" lon="6.929625">
<ele>435</ele>
<time>2010-01-01T01:11:10.000Z</time>
</trkpt>
<trkpt lat="50.526671" lon="6.930003">
<ele>435</ele>
<time>2010-01-01T01:11:23.000Z</time>
</trkpt>
<trkpt lat="50.526451" lon="6.930309">
<ele>435</ele>
<time>2010-01-01T01:11:35.000Z</time>
</trkpt>
<trkpt lat="50.526318" lon="6.930457">
<ele>434</ele>
<time>2010-01-01T01:11:41.000Z</time>
</trkpt>
<trkpt lat="50.526023" lon="6.930718">
<ele>431</ele>
<time>2010-01-01T01:11:55.000Z</time>
</trkpt>
<trkpt lat="50.525935" lon="6.930824">
<ele>430</ele>
<time>2010-01-01T01:11:59.000Z</time>
</trkpt>
<trkpt lat="50.525489" lon="6.931268">
<ele>430</ele>
<time>2010-01-01T01:12:21.000Z</time>
</trkpt>
<trkpt lat="50.525306" lon="6.931407">
<ele>429</ele>
<time>2010-01-01T01:12:29.000Z</time>
</trkpt>
<trkpt lat="50.52523" lon="6.931446">
<ele>429</ele>
<time>2010-01-01T01:12:32.000Z</time>
</trkpt>
<trkpt lat="50.525187" lon="6.931449">
<ele>429</ele>
<time>2010-01-01T01:12:34.000Z</time>
</trkpt>
<trkpt lat="50.525134" lon="6.931437">
<ele>429</ele>
<time>2010-01-01T01:12:36.000Z</time>
</trkpt>
<trkpt lat="50.525085" lon="6.931393">
<ele>429</ele>
<time>2010-01-01T01:12:38.000Z</time>
</trkpt>
<trkpt lat="50.52491" lon="6.931383">
<ele>428</ele>
<time>2010-01-01T01:12:45.000Z</time>
</trkpt>
<trkpt lat="50.524775" lon="6.93135">
<ele>426</ele>
<time>2010-01-01T01:12:50.000Z</time>
</trkpt>
<trkpt lat="50.524334" lon="6.931305">
<ele>422</ele>
<time>2010-01-01T01:13:08.000Z</time>
</trkpt>
<trkpt lat="50.524184" lon="6.931322">
<ele>421</ele>
<time>2010-01-01T01:13:14.000Z</time>
</trkpt>
<trkpt lat="50.523891" lon="6.931544">
<ele>419</ele>
<time>2010-01-01T01:13:27.000Z</time>
</trkpt>
<trkpt lat="50.523792" lon="6.931572">
<ele>418</ele>
<time>2010-01-01T01:13:31.000Z</time>
</trkpt>
<trkpt lat="50.523654" lon="6.931641">
<ele>417</ele>
<time>2010-01-01T01:13:37.000Z</time>
</trkpt>
<trkpt lat="50.52349" lon="6.931683">
<ele>415</ele>
<time>2010-01-01T01:13:44.000Z</time>
</trkpt>
<trkpt lat="50.523357" lon="6.93174">
<ele>414</ele>
<time>2010-01-01T01:13:49.000Z</time>
</trkpt>
<trkpt lat="50.522896" lon="6.932053">
<ele>411</ele>
<time>2010-01-01T01:14:09.000Z</time>
</trkpt>
<trkpt lat="50.5227" lon="6.932209">
<ele>409</ele>
<time>2010-01-01T01:14:18.000Z</time>
</trkpt>
<trkpt lat="50.522392" lon="6.932496">
<ele>405</ele>
<time>2010-01-01T01:14:32.000Z</time>
</trkpt>
<trkpt lat="50.522308" lon="6.932591">
<ele>405</ele>
<time>2010-01-01T01:14:37.000Z</time>
</trkpt>
<trkpt lat="50.522239" lon="6.932698">
<ele>404</ele>
<time>2010-01-01T01:14:40.000Z</time>
</trkpt>
<trkpt lat="50.522181" lon="6.932805">
<ele>404</ele>
<time>2010-01-01T01:14:44.000Z</time>
</trkpt>
<trkpt lat="50.522113" lon="6.932992">
<ele>403</ele>
<time>2010-01-01T01:14:50.000Z</time>
</trkpt>
<trkpt lat="50.522121" lon="6.933019">
<ele>403</ele>
<time>2010-01-01T01:14:50.000Z</time>
</trkpt>
<trkpt lat="50.522064" lon="6.933262">
<ele>402</ele>
<time>2010-01-01T01:14:57.000Z</time>
</trkpt>
<trkpt lat="50.522014" lon="6.933627">
<ele>402</ele>
<time>2010-01-01T01:15:06.000Z</time>
</trkpt>
<trkpt lat="50.521995" lon="6.934002">
<ele>403</ele>
<time>2010-01-01T01:15:16.000Z</time>
</trkpt>
<trkpt lat="50.521998" lon="6.934177">
<ele>403</ele>
<time>2010-01-01T01:15:20.000Z</time>
</trkpt>
<trkpt lat="50.522025" lon="6.934338">
<ele>405</ele>
<time>2010-01-01T01:15:25.000Z</time>
</trkpt>
<trkpt lat="50.522025" lon="6.934487">
<ele>405</ele>
<time>2010-01-01T01:15:28.000Z</time>
</trkpt>
<trkpt lat="50.52195" lon="6.935085">
<ele>407</ele>
<time>2010-01-01T01:15:44.000Z</time>
</trkpt>
<trkpt lat="50.521908" lon="6.935685">
<ele>409</ele>
<time>2010-01-01T01:15:59.000Z</time>
</trkpt>
<trkpt lat="50.521904" lon="6.935866">
<ele>410</ele>
<time>2010-01-01T01:16:04.000Z</time>
</trkpt>
<trkpt lat="50.521931" lon="6.936437">
<ele>409</ele>
<time>2010-01-01T01:16:18.000Z</time>
</trkpt>
<trkpt lat="50.522049" lon="6.936815">
<ele>409</ele>
<time>2010-01-01T01:16:29.000Z</time>
</trkpt>
<trkpt lat="50.52214" lon="6.936943">
<ele>409</ele>
<time>2010-01-01T01:16:34.000Z</time>
</trkpt>
<trkpt lat="50.522284" lon="6.937244">
<ele>410</ele>
<time>2010-01-01T01:16:44.000Z</time>
</trkpt>
<trkpt lat="50.522293" lon="6.937304">
<ele>409</ele>
<time>2010-01-01T01:16:45.000Z</time>
</trkpt>
<trkpt lat="50.522335" lon="6.937391">
<ele>410</ele>
<time>2010-01-01T01:16:48.000Z</time>
</trkpt>
<trkpt lat="50.522456" lon="6.937536">
<ele>410</ele>
<time>2010-01-01T01:16:54.000Z</time>
</trkpt>
<trkpt lat="50.522487" lon="6.937694">
<ele>410</ele>
<time>2010-01-01T01:16:58.000Z</time>
</trkpt>
<trkpt lat="50.522498" lon="6.937925">
<ele>408</ele>
<time>2010-01-01T01:17:04.000Z</time>
</trkpt>
<trkpt lat="50.522487" lon="6.93797">
<ele>408</ele>
<time>2010-01-01T01:17:05.000Z</time>
</trkpt>
<trkpt lat="50.522483" lon="6.938313">
<ele>406</ele>
<time>2010-01-01T01:17:14.000Z</time>
</trkpt>
<trkpt lat="50.522495" lon="6.938421">
<ele>405</ele>
<time>2010-01-01T01:17:17.000Z</time>
</trkpt>
<trkpt lat="50.522555" lon="6.938611">
<ele>404</ele>
<time>2010-01-01T01:17:22.000Z</time>
</trkpt>
<trkpt lat="50.522411" lon="6.938694">
<ele>402</ele>
<time>2010-01-01T01:17:29.000Z</time>
</trkpt>
<trkpt lat="50.522326" lon="6.938706">
<ele>401</ele>
<time>2010-01-01T01:17:32.000Z</time>
</trkpt>
<trkpt lat="50.522239" lon="6.938684">
<ele>401</ele>
<time>2010-01-01T01:17:35.000Z</time>
</trkpt>
<trkpt lat="50.522121" lon="6.938681">
<ele>400</ele>
<time>2010-01-01T01:17:40.000Z</time>
</trkpt>
<trkpt lat="50.521946" lon="6.938567">
<ele>400</ele>
<time>2010-01-01T01:17:48.000Z</time>
</trkpt>
<trkpt lat="50.521904" lon="6.938525">
<ele>400</ele>
<time>2010-01-01T01:17:50.000Z</time>
</trkpt>
<trkpt lat="50.521766" lon="6.938538">
<ele>399</ele>
<time>2010-01-01T01:17:55.000Z</time>
</trkpt>
<trkpt lat="50.521636" lon="6.938708">
<ele>398</ele>
<time>2010-01-01T01:18:02.000Z</time>
</trkpt>
<trkpt lat="50.521561" lon="6.938959">
<ele>397</ele>
<time>2010-01-01T01:18:09.000Z</time>
</trkpt>
<trkpt lat="50.521214" lon="6.93972">
<ele>393</ele>
<time>2010-01-01T01:18:33.000Z</time>
</trkpt>
<trkpt lat="50.521168" lon="6.939866">
<ele>392</ele>
<time>2010-01-01T01:18:37.000Z</time>
</trkpt>
<trkpt lat="50.521168" lon="6.939969">
<ele>392</ele>
<time>2010-01-01T01:18:40.000Z</time>
</trkpt>
<trkpt lat="50.52119" lon="6.940035">
<ele>391</ele>
<time>2010-01-01T01:18:42.000Z</time>
</trkpt>
<trkpt lat="50.521275" lon="6.940181">
<ele>390</ele>
<time>2010-01-01T01:18:47.000Z</time>
</trkpt>
<trkpt lat="50.52135" lon="6.940411">
<ele>389</ele>
<time>2010-01-01T01:18:53.000Z</time>
</trkpt>
<trkpt lat="50.521446" lon="6.940606">
<ele>388</ele>
<time>2010-01-01T01:19:00.000Z</time>
</trkpt>
<trkpt lat="50.521525" lon="6.9407">
<ele>387</ele>
<time>2010-01-01T01:19:04.000Z</time>
</trkpt>
<trkpt lat="50.521594" lon="6.940728">
<ele>387</ele>
<time>2010-01-01T01:19:06.000Z</time>
</trkpt>
<trkpt lat="50.521594" lon="6.940803">
<ele>387</ele>
<time>2010-01-01T01:19:08.000Z</time>
</trkpt>
<trkpt lat="50.521545" lon="6.940895">
<ele>386</ele>
<time>2010-01-01T01:19:11.000Z</time>
</trkpt>
<trkpt lat="50.521347" lon="6.941104">
<ele>387</ele>
<time>2010-01-01T01:19:21.000Z</time>
</trkpt>
<trkpt lat="50.521187" lon="6.941329">
<ele>387</ele>
<time>2010-01-01T01:19:29.000Z</time>
</trkpt>
<trkpt lat="50.521015" lon="6.94151">
<ele>387</ele>
<time>2010-01-01T01:19:38.000Z</time>
</trkpt>
<trkpt lat="50.520828" lon="6.941623">
<ele>388</ele>
<time>2010-01-01T01:19:46.000Z</time>
</trkpt>
<trkpt lat="50.520671" lon="6.941662">
<ele>387</ele>
<time>2010-01-01T01:19:52.000Z</time>
</trkpt>
<trkpt lat="50.520523" lon="6.941625">
<ele>386</ele>
<time>2010-01-01T01:19:58.000Z</time>
</trkpt>
<trkpt lat="50.520419" lon="6.941627">
<ele>385</ele>
<time>2010-01-01T01:20:02.000Z</time>
</trkpt>
<trkpt lat="50.520312" lon="6.941574">
<ele>385</ele>
<time>2010-01-01T01:20:07.000Z</time>
</trkpt>
<trkpt lat="50.520255" lon="6.94153">
<ele>385</ele>
<time>2010-01-01T01:20:09.000Z</time>
</trkpt>
<trkpt lat="50.520186" lon="6.941401">
<ele>385</ele>
<time>2010-01-01T01:20:14.000Z</time>
</trkpt>
<trkpt lat="50.519797" lon="6.940889">
<ele>386</ele>
<time>2010-01-01T01:20:34.000Z</time>
</trkpt>
<trkpt lat="50.519661" lon="6.940738">
<ele>385</ele>
<time>2010-01-01T01:20:41.000Z</time>
</trkpt>
<trkpt lat="50.519615" lon="6.94075">
<ele>385</ele>
<time>2010-01-01T01:20:42.000Z</time>
</trkpt>
<trkpt lat="50.519619" lon="6.940822">
<ele>384</ele>
<time>2010-01-01T01:20:44.000Z</time>
</trkpt>
<trkpt lat="50.519671" lon="6.940887">
<ele>384</ele>
<time>2010-01-01T01:20:47.000Z</time>
</trkpt>
<trkpt lat="50.519694" lon="6.941009">
<ele>383</ele>
<time>2010-01-01T01:20:50.000Z</time>
</trkpt>
<trkpt lat="50.519683" lon="6.941133">
<ele>382</ele>
<time>2010-01-01T01:20:53.000Z</time>
</trkpt>
<trkpt lat="50.519698" lon="6.941159">
<ele>382</ele>
<time>2010-01-01T01:20:54.000Z</time>
</trkpt>
<trkpt lat="50.519694" lon="6.941443">
<ele>379</ele>
<time>2010-01-01T01:21:02.000Z</time>
</trkpt>
<trkpt lat="50.519733" lon="6.941701">
<ele>377</ele>
<time>2010-01-01T01:21:08.000Z</time>
</trkpt>
<trkpt lat="50.519824" lon="6.941828">
<ele>377</ele>
<time>2010-01-01T01:21:13.000Z</time>
</trkpt>
<trkpt lat="50.519843" lon="6.94189">
<ele>377</ele>
<time>2010-01-01T01:21:15.000Z</time>
</trkpt>
<trkpt lat="50.51992" lon="6.942023">
<ele>376</ele>
<time>2010-01-01T01:21:20.000Z</time>
</trkpt>
<trkpt lat="50.519938" lon="6.942028">
<ele>376</ele>
<time>2010-01-01T01:21:20.000Z</time>
</trkpt>
<trkpt lat="50.519966" lon="6.942076">
<ele>376</ele>
<time>2010-01-01T01:21:22.000Z</time>
</trkpt>
<trkpt lat="50.519989" lon="6.942222">
<ele>374</ele>
<time>2010-01-01T01:21:26.000Z</time>
</trkpt>
<trkpt lat="50.520202" lon="6.942498">
<ele>372</ele>
<time>2010-01-01T01:21:37.000Z</time>
</trkpt>
<trkpt lat="50.520225" lon="6.94266">
<ele>370</ele>
<time>2010-01-01T01:21:41.000Z</time>
</trkpt>
<trkpt lat="50.520228" lon="6.942802">
<ele>368</ele>
<time>2010-01-01T01:21:45.000Z</time>
</trkpt>
<trkpt lat="50.520123" lon="6.943059">
<ele>365</ele>
<time>2010-01-01T01:21:52.000Z</time>
</trkpt>
<trkpt lat="50.520011" lon="6.943242">
<ele>364</ele>
<time>2010-01-01T01:21:59.000Z</time>
</trkpt>
<trkpt lat="50.519947" lon="6.943468">
<ele>360</ele>
<time>2010-01-01T01:22:05.000Z</time>
</trkpt>
<trkpt lat="50.519973" lon="6.943557">
<ele>360</ele>
<time>2010-01-01T01:22:08.000Z</time>
</trkpt>
<trkpt lat="50.519996" lon="6.943575">
<ele>360</ele>
<time>2010-01-01T01:22:09.000Z</time>
</trkpt>
<trkpt lat="50.520008" lon="6.943647">
<ele>359</ele>
<time>2010-01-01T01:22:11.000Z</time>
</trkpt>
<trkpt lat="50.519966" lon="6.94385">
<ele>356</ele>
<time>2010-01-01T01:22:16.000Z</time>
</trkpt>
<trkpt lat="50.51987" lon="6.944113">
<ele>351</ele>
<time>2010-01-01T01:22:24.000Z</time>
</trkpt>
<trkpt lat="50.519957" lon="6.944701">
<ele>343</ele>
<time>2010-01-01T01:22:39.000Z</time>
</trkpt>
<trkpt lat="50.519957" lon="6.945132">
<ele>337</ele>
<time>2010-01-01T01:22:50.000Z</time>
</trkpt>
<trkpt lat="50.519896" lon="6.945338">
<ele>334</ele>
<time>2010-01-01T01:22:56.000Z</time>
</trkpt>
<trkpt lat="50.519806" lon="6.945492">
<ele>331</ele>
<time>2010-01-01T01:23:01.000Z</time>
</trkpt>
<trkpt lat="50.519749" lon="6.945612">
<ele>329</ele>
<time>2010-01-01T01:23:05.000Z</time>
</trkpt>
<trkpt lat="50.51973" lon="6.945693">
<ele>328</ele>
<time>2010-01-01T01:23:07.000Z</time>
</trkpt>
<trkpt lat="50.51965" lon="6.945843">
<ele>325</ele>
<time>2010-01-01T01:23:12.000Z</time>
</trkpt>
<trkpt lat="50.519516" lon="6.946001">
<ele>321</ele>
<time>2010-01-01T01:23:19.000Z</time>
</trkpt>
<trkpt lat="50.519465" lon="6.946011">
<ele>321</ele>
<time>2010-01-01T01:23:21.000Z</time>
</trkpt>
<trkpt lat="50.519351" lon="6.945968">
<ele>320</ele>
<time>2010-01-01T01:23:26.000Z</time>
</trkpt>
<trkpt lat="50.519324" lon="6.945984">
<ele>319</ele>
<time>2010-01-01T01:23:27.000Z</time>
</trkpt>
<trkpt lat="50.519179" lon="6.94587">
<ele>320</ele>
<time>2010-01-01T01:23:33.000Z</time>
</trkpt>
<trkpt lat="50.519076" lon="6.94581">
<ele>320</ele>
<time>2010-01-01T01:23:38.000Z</time>
</trkpt>
<trkpt lat="50.51897" lon="6.945787">
<ele>319</ele>
<time>2010-01-01T01:23:42.000Z</time>
</trkpt>
<trkpt lat="50.518477" lon="6.945456">
<ele>316</ele>
<time>2010-01-01T01:24:03.000Z</time>
</trkpt>
<trkpt lat="50.518317" lon="6.945405">
<ele>314</ele>
<time>2010-01-01T01:24:10.000Z</time>
</trkpt>
<trkpt lat="50.518236" lon="6.945322">
<ele>314</ele>
<time>2010-01-01T01:24:14.000Z</time>
</trkpt>
<trkpt lat="50.518157" lon="6.945483">
<ele>314</ele>
<time>2010-01-01T01:24:19.000Z</time>
</trkpt>
<trkpt lat="50.518226" lon="6.945626">
<ele>314</ele>
<time>2010-01-01T01:24:24.000Z</time>
</trkpt>
<trkpt lat="50.518245" lon="6.945733">
<ele>314</ele>
<time>2010-01-01T01:24:26.000Z</time>
</trkpt>
<trkpt lat="50.518379" lon="6.945899">
<ele>313</ele>
<time>2010-01-01T01:24:33.000Z</time>
</trkpt>
<trkpt lat="50.518447" lon="6.945974">
<ele>313</ele>
<time>2010-01-01T01:24:37.000Z</time>
</trkpt>
<trkpt lat="50.518516" lon="6.946025">
<ele>312</ele>
<time>2010-01-01T01:24:40.000Z</time>
</trkpt>
<trkpt lat="50.518672" lon="6.946085">
<ele>313</ele>
<time>2010-01-01T01:24:46.000Z</time>
</trkpt>
<trkpt lat="50.518929" lon="6.946146">
<ele>314</ele>
<time>2010-01-01T01:24:56.000Z</time>
</trkpt>
<trkpt lat="50.519001" lon="6.9462">
<ele>313</ele>
<time>2010-01-01T01:25:00.000Z</time>
</trkpt>
<trkpt lat="50.519023" lon="6.94626">
<ele>312</ele>
<time>2010-01-01T01:25:01.000Z</time>
</trkpt>
<trkpt lat="50.519115" lon="6.946373">
<ele>311</ele>
<time>2010-01-01T01:25:06.000Z</time>
</trkpt>
<trkpt lat="50.51926" lon="6.946457">
<ele>311</ele>
<time>2010-01-01T01:25:12.000Z</time>
</trkpt>
<trkpt lat="50.519417" lon="6.946456">
<ele>313</ele>
<time>2010-01-01T01:25:18.000Z</time>
</trkpt>
<trkpt lat="50.519565" lon="6.946477">
<ele>315</ele>
<time>2010-01-01T01:25:24.000Z</time>
</trkpt>
<trkpt lat="50.51961" lon="6.946517">
<ele>315</ele>
<time>2010-01-01T01:25:27.000Z</time>
</trkpt>
<trkpt lat="50.519679" lon="6.946532">
<ele>315</ele>
<time>2010-01-01T01:25:29.000Z</time>
</trkpt>
<trkpt lat="50.519725" lon="6.946686">
<ele>313</ele>
<time>2010-01-01T01:25:34.000Z</time>
</trkpt>
<trkpt lat="50.519797" lon="6.946766">
<ele>313</ele>
<time>2010-01-01T01:25:37.000Z</time>
</trkpt>
<trkpt lat="50.519858" lon="6.946783">
<ele>314</ele>
<time>2010-01-01T01:25:40.000Z</time>
</trkpt>
<trkpt lat="50.519909" lon="6.946769">
<ele>315</ele>
<time>2010-01-01T01:25:42.000Z</time>
</trkpt>
<trkpt lat="50.519969" lon="6.94672">
<ele>316</ele>
<time>2010-01-01T01:25:44.000Z</time>
</trkpt>
<trkpt lat="50.520087" lon="6.946681">
<ele>317</ele>
<time>2010-01-01T01:25:49.000Z</time>
</trkpt>
<trkpt lat="50.520252" lon="6.946593">
<ele>319</ele>
<time>2010-01-01T01:25:56.000Z</time>
</trkpt>
<trkpt lat="50.520312" lon="6.946537">
<ele>320</ele>
<time>2010-01-01T01:25:59.000Z</time>
</trkpt>
<trkpt lat="50.520358" lon="6.946441">
<ele>321</ele>
<time>2010-01-01T01:26:02.000Z</time>
</trkpt>
<trkpt lat="50.520343" lon="6.946348">
<ele>322</ele>
<time>2010-01-01T01:26:05.000Z</time>
</trkpt>
<trkpt lat="50.520358" lon="6.946146">
<ele>324</ele>
<time>2010-01-01T01:26:10.000Z</time>
</trkpt>
<trkpt lat="50.5204" lon="6.94603">
<ele>325</ele>
<time>2010-01-01T01:26:13.000Z</time>
</trkpt>
<trkpt lat="50.520373" lon="6.945857">
<ele>327</ele>
<time>2010-01-01T01:26:18.000Z</time>
</trkpt>
<trkpt lat="50.520393" lon="6.945793">
<ele>327</ele>
<time>2010-01-01T01:26:19.000Z</time>
</trkpt>
<trkpt lat="50.520378" lon="6.945661">
<ele>328</ele>
<time>2010-01-01T01:26:23.000Z</time>
</trkpt>
<trkpt lat="50.520412" lon="6.945294">
<ele>332</ele>
<time>2010-01-01T01:26:32.000Z</time>
</trkpt>
<trkpt lat="50.5204" lon="6.945184">
<ele>333</ele>
<time>2010-01-01T01:26:35.000Z</time>
</trkpt>
<trkpt lat="50.520461" lon="6.944956">
<ele>335</ele>
<time>2010-01-01T01:26:41.000Z</time>
</trkpt>
<trkpt lat="50.52055" lon="6.944882">
<ele>334</ele>
<time>2010-01-01T01:26:45.000Z</time>
</trkpt>
<trkpt lat="50.520644" lon="6.944662">
<ele>336</ele>
<time>2010-01-01T01:26:52.000Z</time>
</trkpt>
<trkpt lat="50.52072" lon="6.944557">
<ele>336</ele>
<time>2010-01-01T01:26:56.000Z</time>
</trkpt>
<trkpt lat="50.520767" lon="6.944458">
<ele>336</ele>
<time>2010-01-01T01:26:59.000Z</time>
</trkpt>
<trkpt lat="50.520949" lon="6.944259">
<ele>339</ele>
<time>2010-01-01T01:27:08.000Z</time>
</trkpt>
<trkpt lat="50.521075" lon="6.944067">
<ele>343</ele>
<time>2010-01-01T01:27:15.000Z</time>
</trkpt>
<trkpt lat="50.521187" lon="6.943932">
<ele>346</ele>
<time>2010-01-01T01:27:21.000Z</time>
</trkpt>
<trkpt lat="50.521227" lon="6.943675">
<ele>350</ele>
<time>2010-01-01T01:27:28.000Z</time>
</trkpt>
<trkpt lat="50.521397" lon="6.943348">
<ele>352</ele>
<time>2010-01-01T01:27:38.000Z</time>
</trkpt>
<trkpt lat="50.521537" lon="6.943198">
<ele>354</ele>
<time>2010-01-01T01:27:45.000Z</time>
</trkpt>
<trkpt lat="50.521715" lon="6.943112">
<ele>354</ele>
<time>2010-01-01T01:27:53.000Z</time>
</trkpt>
<trkpt lat="50.52196" lon="6.942994">
<ele>355</ele>
<time>2010-01-01T01:28:03.000Z</time>
</trkpt>
<trkpt lat="50.522032" lon="6.943101">
<ele>354</ele>
<time>2010-01-01T01:28:07.000Z</time>
</trkpt>
<trkpt lat="50.522025" lon="6.943241">
<ele>352</ele>
<time>2010-01-01T01:28:10.000Z</time>
</trkpt>
<trkpt lat="50.521933" lon="6.94338">
<ele>351</ele>
<time>2010-01-01T01:28:16.000Z</time>
</trkpt>
<trkpt lat="50.521796" lon="6.943485">
<ele>351</ele>
<time>2010-01-01T01:28:22.000Z</time>
</trkpt>
<trkpt lat="50.521754" lon="6.943551">
<ele>351</ele>
<time>2010-01-01T01:28:24.000Z</time>
</trkpt>
<trkpt lat="50.521682" lon="6.943911">
<ele>350</ele>
<time>2010-01-01T01:28:34.000Z</time>
</trkpt>
<trkpt lat="50.521534" lon="6.94439">
<ele>348</ele>
<time>2010-01-01T01:28:47.000Z</time>
</trkpt>
<trkpt lat="50.521522" lon="6.94449">
<ele>348</ele>
<time>2010-01-01T01:28:50.000Z</time>
</trkpt>
<trkpt lat="50.521477" lon="6.944625">
<ele>347</ele>
<time>2010-01-01T01:28:54.000Z</time>
</trkpt>
<trkpt lat="50.521453" lon="6.944751">
<ele>346</ele>
<time>2010-01-01T01:28:57.000Z</time>
</trkpt>
<trkpt lat="50.52148" lon="6.944825">
<ele>347</ele>
<time>2010-01-01T01:28:59.000Z</time>
</trkpt>
<trkpt lat="50.521563" lon="6.944961">
<ele>348</ele>
<time>2010-01-01T01:29:04.000Z</time>
</trkpt>
<trkpt lat="50.521591" lon="6.944972">
<ele>349</ele>
<time>2010-01-01T01:29:05.000Z</time>
</trkpt>
<trkpt lat="50.521636" lon="6.945155">
<ele>349</ele>
<time>2010-01-01T01:29:10.000Z</time>
</trkpt>
<trkpt lat="50.521708" lon="6.945242">
<ele>350</ele>
<time>2010-01-01T01:29:14.000Z</time>
</trkpt>
<trkpt lat="50.521774" lon="6.945301">
<ele>350</ele>
<time>2010-01-01T01:29:17.000Z</time>
</trkpt>
<trkpt lat="50.521862" lon="6.945353">
<ele>352</ele>
<time>2010-01-01T01:29:20.000Z</time>
</trkpt>
<trkpt lat="50.521893" lon="6.945407">
<ele>352</ele>
<time>2010-01-01T01:29:22.000Z</time>
</trkpt>
<trkpt lat="50.52195" lon="6.945448">
<ele>352</ele>
<time>2010-01-01T01:29:25.000Z</time>
</trkpt>
<trkpt lat="50.521992" lon="6.945618">
<ele>352</ele>
<time>2010-01-01T01:29:29.000Z</time>
</trkpt>
<trkpt lat="50.522064" lon="6.945723">
<ele>352</ele>
<time>2010-01-01T01:29:33.000Z</time>
</trkpt>
<trkpt lat="50.522284" lon="6.945933">
<ele>355</ele>
<time>2010-01-01T01:29:44.000Z</time>
</trkpt>
<trkpt lat="50.522305" lon="6.945915">
<ele>355</ele>
<time>2010-01-01T01:29:45.000Z</time>
</trkpt>
<trkpt lat="50.522366" lon="6.945959">
<ele>356</ele>
<time>2010-01-01T01:29:47.000Z</time>
</trkpt>
<trkpt lat="50.522396" lon="6.946011">
<ele>356</ele>
<time>2010-01-01T01:29:49.000Z</time>
</trkpt>
<trkpt lat="50.522456" lon="6.946036">
<ele>357</ele>
<time>2010-01-01T01:29:52.000Z</time>
</trkpt>
<trkpt lat="50.522522" lon="6.946094">
<ele>358</ele>
<time>2010-01-01T01:29:55.000Z</time>
</trkpt>
<trkpt lat="50.522674" lon="6.946171">
<ele>360</ele>
<time>2010-01-01T01:30:01.000Z</time>
</trkpt>
<trkpt lat="50.522773" lon="6.946256">
<ele>362</ele>
<time>2010-01-01T01:30:06.000Z</time>
</trkpt>
<trkpt lat="50.522872" lon="6.94627">
<ele>363</ele>
<time>2010-01-01T01:30:10.000Z</time>
</trkpt>
<trkpt lat="50.522881" lon="6.946391">
<ele>363</ele>
<time>2010-01-01T01:30:13.000Z</time>
</trkpt>
<trkpt lat="50.52299" lon="6.946423">
<ele>365</ele>
<time>2010-01-01T01:30:17.000Z</time>
</trkpt>
<trkpt lat="50.523063" lon="6.946528">
<ele>366</ele>
<time>2010-01-01T01:30:21.000Z</time>
</trkpt>
<trkpt lat="50.523125" lon="6.946564">
<ele>367</ele>
<time>2010-01-01T01:30:24.000Z</time>
</trkpt>
<trkpt lat="50.52317" lon="6.946663">
<ele>367</ele>
<time>2010-01-01T01:30:27.000Z</time>
</trkpt>
<trkpt lat="50.52327" lon="6.946805">
<ele>368</ele>
<time>2010-01-01T01:30:32.000Z</time>
</trkpt>
<trkpt lat="50.523315" lon="6.946917">
<ele>368</ele>
<time>2010-01-01T01:30:36.000Z</time>
</trkpt>
<trkpt lat="50.523406" lon="6.947063">
<ele>369</ele>
<time>2010-01-01T01:30:41.000Z</time>
</trkpt>
<trkpt lat="50.523478" lon="6.947246">
<ele>369</ele>
<time>2010-01-01T01:30:46.000Z</time>
</trkpt>
<trkpt lat="50.52352" lon="6.947274">
<ele>370</ele>
<time>2010-01-01T01:30:48.000Z</time>
</trkpt>
<trkpt lat="50.523696" lon="6.947571">
<ele>373</ele>
<time>2010-01-01T01:30:58.000Z</time>
</trkpt>
<trkpt lat="50.523749" lon="6.947748">
<ele>374</ele>
<time>2010-01-01T01:31:03.000Z</time>
</trkpt>
<trkpt lat="50.523861" lon="6.947892">
<ele>376</ele>
<time>2010-01-01T01:31:09.000Z</time>
</trkpt>
<trkpt lat="50.523964" lon="6.948148">
<ele>377</ele>
<time>2010-01-01T01:31:17.000Z</time>
</trkpt>
<trkpt lat="50.523933" lon="6.948472">
<ele>375</ele>
<time>2010-01-01T01:31:25.000Z</time>
</trkpt>
<trkpt lat="50.523807" lon="6.948871">
<ele>373</ele>
<time>2010-01-01T01:31:37.000Z</time>
</trkpt>
<trkpt lat="50.523692" lon="6.949022">
<ele>373</ele>
<time>2010-01-01T01:31:43.000Z</time>
</trkpt>
<trkpt lat="50.52362" lon="6.949151">
<ele>372</ele>
<time>2010-01-01T01:31:47.000Z</time>
</trkpt>
<trkpt lat="50.523457" lon="6.949378">
<ele>372</ele>
<time>2010-01-01T01:31:56.000Z</time>
</trkpt>
<trkpt lat="50.523376" lon="6.949603">
<ele>372</ele>
<time>2010-01-01T01:32:02.000Z</time>
</trkpt>
<trkpt lat="50.523413" lon="6.949764">
<ele>373</ele>
<time>2010-01-01T01:32:07.000Z</time>
</trkpt>
<trkpt lat="50.523544" lon="6.949848">
<ele>373</ele>
<time>2010-01-01T01:32:12.000Z</time>
</trkpt>
<trkpt lat="50.523547" lon="6.949959">
<ele>374</ele>
<time>2010-01-01T01:32:15.000Z</time>
</trkpt>
<trkpt lat="50.523529" lon="6.95008">
<ele>373</ele>
<time>2010-01-01T01:32:18.000Z</time>
</trkpt>
<trkpt lat="50.52341" lon="6.950189">
<ele>372</ele>
<time>2010-01-01T01:32:24.000Z</time>
</trkpt>
<trkpt lat="50.523177" lon="6.950699">
<ele>369</ele>
<time>2010-01-01T01:32:40.000Z</time>
</trkpt>
<trkpt lat="50.523063" lon="6.95111">
<ele>366</ele>
<time>2010-01-01T01:32:51.000Z</time>
</trkpt>
<trkpt lat="50.523056" lon="6.951351">
<ele>364</ele>
<time>2010-01-01T01:32:57.000Z</time>
</trkpt>
<trkpt lat="50.523071" lon="6.951677">
<ele>362</ele>
<time>2010-01-01T01:33:06.000Z</time>
</trkpt>
<trkpt lat="50.523021" lon="6.951932">
<ele>360</ele>
<time>2010-01-01T01:33:12.000Z</time>
</trkpt>
<trkpt lat="50.522616" lon="6.953401">
<ele>352</ele>
<time>2010-01-01T01:33:53.000Z</time>
</trkpt>
<trkpt lat="50.522426" lon="6.953804">
<ele>353</ele>
<time>2010-01-01T01:34:06.000Z</time>
</trkpt>
<trkpt lat="50.522273" lon="6.953993">
<ele>355</ele>
<time>2010-01-01T01:34:14.000Z</time>
</trkpt>
<trkpt lat="50.522224" lon="6.954101">
<ele>356</ele>
<time>2010-01-01T01:34:17.000Z</time>
</trkpt>
<trkpt lat="50.522258" lon="6.95417">
<ele>355</ele>
<time>2010-01-01T01:34:19.000Z</time>
</trkpt>
<trkpt lat="50.522278" lon="6.95482">
<ele>359</ele>
<time>2010-01-01T01:34:36.000Z</time>
</trkpt>
<trkpt lat="50.522362" lon="6.955286">
<ele>360</ele>
<time>2010-01-01T01:34:48.000Z</time>
</trkpt>
<trkpt lat="50.522339" lon="6.95544">
<ele>361</ele>
<time>2010-01-01T01:34:52.000Z</time>
</trkpt>
<trkpt lat="50.522324" lon="6.955731">
<ele>363</ele>
<time>2010-01-01T01:35:00.000Z</time>
</trkpt>
<trkpt lat="50.522266" lon="6.956097">
<ele>364</ele>
<time>2010-01-01T01:35:09.000Z</time>
</trkpt>
<trkpt lat="50.522282" lon="6.956327">
<ele>363</ele>
<time>2010-01-01T01:35:15.000Z</time>
</trkpt>
<trkpt lat="50.522254" lon="6.95658">
<ele>363</ele>
<time>2010-01-01T01:35:22.000Z</time>
</trkpt>
<trkpt lat="50.522282" lon="6.956814">
<ele>362</ele>
<time>2010-01-01T01:35:28.000Z</time>
</trkpt>
<trkpt lat="50.522258" lon="6.957174">
<ele>361</ele>
<time>2010-01-01T01:35:37.000Z</time>
</trkpt>
<trkpt lat="50.522231" lon="6.957372">
<ele>361</ele>
<time>2010-01-01T01:35:42.000Z</time>
</trkpt>
<trkpt lat="50.522247" lon="6.95755">
<ele>360</ele>
<time>2010-01-01T01:35:47.000Z</time>
</trkpt>
<trkpt lat="50.522354" lon="6.957702">
<ele>357</ele>
<time>2010-01-01T01:35:52.000Z</time>
</trkpt>
<trkpt lat="50.522403" lon="6.957927">
<ele>355</ele>
<time>2010-01-01T01:35:59.000Z</time>
</trkpt>
<trkpt lat="50.522445" lon="6.958542">
<ele>350</ele>
<time>2010-01-01T01:36:14.000Z</time>
</trkpt>
<trkpt lat="50.522426" lon="6.958847">
<ele>348</ele>
<time>2010-01-01T01:36:22.000Z</time>
</trkpt>
<trkpt lat="50.522445" lon="6.959239">
<ele>344</ele>
<time>2010-01-01T01:36:32.000Z</time>
</trkpt>
<trkpt lat="50.522571" lon="6.959953">
<ele>340</ele>
<time>2010-01-01T01:36:51.000Z</time>
</trkpt>
<trkpt lat="50.522682" lon="6.960195">
<ele>338</ele>
<time>2010-01-01T01:36:59.000Z</time>
</trkpt>
<trkpt lat="50.522647" lon="6.960233">
<ele>338</ele>
<time>2010-01-01T01:37:00.000Z</time>
</trkpt>
<trkpt lat="50.522522" lon="6.960683">
<ele>335</ele>
<time>2010-01-01T01:37:13.000Z</time>
</trkpt>
<trkpt lat="50.522475" lon="6.960754">
<ele>334</ele>
<time>2010-01-01T01:37:15.000Z</time>
</trkpt>
<trkpt lat="50.522429" lon="6.960864">
<ele>333</ele>
<time>2010-01-01T01:37:19.000Z</time>
</trkpt>
<trkpt lat="50.522362" lon="6.960943">
<ele>332</ele>
<time>2010-01-01T01:37:22.000Z</time>
</trkpt>
<trkpt lat="50.522293" lon="6.960977">
<ele>331</ele>
<time>2010-01-01T01:37:25.000Z</time>
</trkpt>
<trkpt lat="50.522263" lon="6.96102">
<ele>330</ele>
<time>2010-01-01T01:37:27.000Z</time>
</trkpt>
<trkpt lat="50.522201" lon="6.961061">
<ele>329</ele>
<time>2010-01-01T01:37:29.000Z</time>
</trkpt>
<trkpt lat="50.522095" lon="6.961074">
<ele>329</ele>
<time>2010-01-01T01:37:33.000Z</time>
</trkpt>
<trkpt lat="50.521998" lon="6.9611">
<ele>328</ele>
<time>2010-01-01T01:37:37.000Z</time>
</trkpt>
<trkpt lat="50.521956" lon="6.961125">
<ele>327</ele>
<time>2010-01-01T01:37:39.000Z</time>
</trkpt>
<trkpt lat="50.521693" lon="6.961195">
<ele>326</ele>
<time>2010-01-01T01:37:50.000Z</time>
</trkpt>
<trkpt lat="50.521411" lon="6.961183">
<ele>324</ele>
<time>2010-01-01T01:38:01.000Z</time>
</trkpt>
<trkpt lat="50.521319" lon="6.961206">
<ele>323</ele>
<time>2010-01-01T01:38:05.000Z</time>
</trkpt>
<trkpt lat="50.521214" lon="6.96121">
<ele>322</ele>
<time>2010-01-01T01:38:09.000Z</time>
</trkpt>
<trkpt lat="50.521079" lon="6.961321">
<ele>321</ele>
<time>2010-01-01T01:38:15.000Z</time>
</trkpt>
<trkpt lat="50.520913" lon="6.961405">
<ele>321</ele>
<time>2010-01-01T01:38:22.000Z</time>
</trkpt>
<trkpt lat="50.520943" lon="6.961802">
<ele>321</ele>
<time>2010-01-01T01:38:32.000Z</time>
</trkpt>
<trkpt lat="50.520816" lon="6.962213">
<ele>320</ele>
<time>2010-01-01T01:38:44.000Z</time>
</trkpt>
<trkpt lat="50.520786" lon="6.962363">
<ele>319</ele>
<time>2010-01-01T01:38:48.000Z</time>
</trkpt>
<trkpt lat="50.520638" lon="6.962588">
<ele>320</ele>
<time>2010-01-01T01:38:56.000Z</time>
</trkpt>
<trkpt lat="50.520404" lon="6.963032">
<ele>320</ele>
<time>2010-01-01T01:39:11.000Z</time>
</trkpt>
<trkpt lat="50.520274" lon="6.963214">
<ele>321</ele>
<time>2010-01-01T01:39:18.000Z</time>
</trkpt>
<trkpt lat="50.520107" lon="6.963663">
<ele>318</ele>
<time>2010-01-01T01:39:31.000Z</time>
</trkpt>
<trkpt lat="50.52002" lon="6.963824">
<ele>318</ele>
<time>2010-01-01T01:39:36.000Z</time>
</trkpt>
<trkpt lat="50.519993" lon="6.963911">
<ele>317</ele>
<time>2010-01-01T01:39:39.000Z</time>
</trkpt>
<trkpt lat="50.519954" lon="6.963972">
<ele>316</ele>
<time>2010-01-01T01:39:41.000Z</time>
</trkpt>
<trkpt lat="50.519969" lon="6.96391">
<ele>317</ele>
<time>2010-01-01T01:39:43.000Z</time>
</trkpt>
<trkpt lat="50.519942" lon="6.963896">
<ele>317</ele>
<time>2010-01-01T01:39:44.000Z</time>
</trkpt>
<trkpt lat="50.519885" lon="6.963992">
<ele>316</ele>
<time>2010-01-01T01:39:47.000Z</time>
</trkpt>
<trkpt lat="50.519828" lon="6.964166">
<ele>315</ele>
<time>2010-01-01T01:39:52.000Z</time>
</trkpt>
<trkpt lat="50.519817" lon="6.964304">
<ele>314</ele>
<time>2010-01-01T01:39:56.000Z</time>
</trkpt>
<trkpt lat="50.51976" lon="6.964516">
<ele>313</ele>
<time>2010-01-01T01:40:02.000Z</time>
</trkpt>
<trkpt lat="50.519755" lon="6.964619">
<ele>312</ele>
<time>2010-01-01T01:40:04.000Z</time>
</trkpt>
<trkpt lat="50.51971" lon="6.964773">
<ele>312</ele>
<time>2010-01-01T01:40:09.000Z</time>
</trkpt>
<trkpt lat="50.519691" lon="6.964988">
<ele>311</ele>
<time>2010-01-01T01:40:14.000Z</time>
</trkpt>
<trkpt lat="50.51963" lon="6.96528">
<ele>310</ele>
<time>2010-01-01T01:40:22.000Z</time>
</trkpt>
<trkpt lat="50.519607" lon="6.965476">
<ele>309</ele>
<time>2010-01-01T01:40:27.000Z</time>
</trkpt>
<trkpt lat="50.519592" lon="6.965504">
<ele>309</ele>
<time>2010-01-01T01:40:28.000Z</time>
</trkpt>
<trkpt lat="50.519577" lon="6.965846">
<ele>306</ele>
<time>2010-01-01T01:40:37.000Z</time>
</trkpt>
<trkpt lat="50.519538" lon="6.965961">
<ele>304</ele>
<time>2010-01-01T01:40:40.000Z</time>
</trkpt>
<trkpt lat="50.519444" lon="6.966039">
<ele>304</ele>
<time>2010-01-01T01:40:44.000Z</time>
</trkpt>
<trkpt lat="50.519153" lon="6.966124">
<ele>305</ele>
<time>2010-01-01T01:40:56.000Z</time>
</trkpt>
<trkpt lat="50.519107" lon="6.966153">
<ele>304</ele>
<time>2010-01-01T01:40:58.000Z</time>
</trkpt>
<trkpt lat="50.51894" lon="6.966165">
<ele>305</ele>
<time>2010-01-01T01:41:05.000Z</time>
</trkpt>
<trkpt lat="50.518893" lon="6.966198">
<ele>304</ele>
<time>2010-01-01T01:41:07.000Z</time>
</trkpt>
<trkpt lat="50.51863" lon="6.966291">
<ele>302</ele>
<time>2010-01-01T01:41:18.000Z</time>
</trkpt>
<trkpt lat="50.518394" lon="6.966272">
<ele>303</ele>
<time>2010-01-01T01:41:27.000Z</time>
</trkpt>
<trkpt lat="50.518265" lon="6.96634">
<ele>300</ele>
<time>2010-01-01T01:41:33.000Z</time>
</trkpt>
<trkpt lat="50.518199" lon="6.9664">
<ele>298</ele>
<time>2010-01-01T01:41:36.000Z</time>
</trkpt>
<trkpt lat="50.518184" lon="6.966434">
<ele>297</ele>
<time>2010-01-01T01:41:37.000Z</time>
</trkpt>
<trkpt lat="50.517985" lon="6.966582">
<ele>292</ele>
<time>2010-01-01T01:41:45.000Z</time>
</trkpt>
<trkpt lat="50.517952" lon="6.966623">
<ele>291</ele>
<time>2010-01-01T01:41:47.000Z</time>
</trkpt>
<trkpt lat="50.51784" lon="6.966804">
<ele>286</ele>
<time>2010-01-01T01:41:54.000Z</time>
</trkpt>
<trkpt lat="50.517834" lon="6.966858">
<ele>285</ele>
<time>2010-01-01T01:41:55.000Z</time>
</trkpt>
<trkpt lat="50.517776" lon="6.966941">
<ele>283</ele>
<time>2010-01-01T01:41:58.000Z</time>
</trkpt>
<trkpt lat="50.517662" lon="6.96717">
<ele>278</ele>
<time>2010-01-01T01:42:06.000Z</time>
</trkpt>
<trkpt lat="50.517512" lon="6.967547">
<ele>271</ele>
<time>2010-01-01T01:42:17.000Z</time>
</trkpt>
<trkpt lat="50.517379" lon="6.96771">
<ele>266</ele>
<time>2010-01-01T01:42:24.000Z</time>
</trkpt>
<trkpt lat="50.517242" lon="6.967849">
<ele>261</ele>
<time>2010-01-01T01:42:30.000Z</time>
</trkpt>
<trkpt lat="50.517283" lon="6.967825">
<ele>262</ele>
<time>2010-01-01T01:42:32.000Z</time>
</trkpt>
<trkpt lat="50.517204" lon="6.967893">
<ele>260</ele>
<time>2010-01-01T01:42:36.000Z</time>
</trkpt>
<trkpt lat="50.517066" lon="6.968045">
<ele>257</ele>
<time>2010-01-01T01:42:42.000Z</time>
</trkpt>
<trkpt lat="50.516875" lon="6.968308">
<ele>253</ele>
<time>2010-01-01T01:42:52.000Z</time>
</trkpt>
<trkpt lat="50.51667" lon="6.968512">
<ele>248</ele>
<time>2010-01-01T01:43:02.000Z</time>
</trkpt>
<trkpt lat="50.516478" lon="6.968655">
<ele>242</ele>
<time>2010-01-01T01:43:11.000Z</time>
</trkpt>
<trkpt lat="50.516414" lon="6.968683">
<ele>241</ele>
<time>2010-01-01T01:43:13.000Z</time>
</trkpt>
<trkpt lat="50.516047" lon="6.968727">
<ele>237</ele>
<time>2010-01-01T01:43:28.000Z</time>
</trkpt>
<trkpt lat="50.515953" lon="6.96877">
<ele>235</ele>
<time>2010-01-01T01:43:32.000Z</time>
</trkpt>
<trkpt lat="50.515896" lon="6.96878">
<ele>234</ele>
<time>2010-01-01T01:43:34.000Z</time>
</trkpt>
<trkpt lat="50.515862" lon="6.968807">
<ele>233</ele>
<time>2010-01-01T01:43:36.000Z</time>
</trkpt>
<trkpt lat="50.515678" lon="6.968848">
<ele>231</ele>
<time>2010-01-01T01:43:43.000Z</time>
</trkpt>
<trkpt lat="50.515529" lon="6.968998">
<ele>228</ele>
<time>2010-01-01T01:43:50.000Z</time>
</trkpt>
<trkpt lat="50.515494" lon="6.969077">
<ele>227</ele>
<time>2010-01-01T01:43:53.000Z</time>
</trkpt>
<trkpt lat="50.515307" lon="6.969181">
<ele>226</ele>
<time>2010-01-01T01:44:01.000Z</time>
</trkpt>
<trkpt lat="50.515087" lon="6.96936">
<ele>221</ele>
<time>2010-01-01T01:44:11.000Z</time>
</trkpt>
<trkpt lat="50.514984" lon="6.969403">
<ele>220</ele>
<time>2010-01-01T01:44:15.000Z</time>
</trkpt>
<trkpt lat="50.514895" lon="6.969488">
<ele>218</ele>
<time>2010-01-01T01:44:19.000Z</time>
</trkpt>
<trkpt lat="50.514828" lon="6.969614">
<ele>216</ele>
<time>2010-01-01T01:44:23.000Z</time>
</trkpt>
<trkpt lat="50.514786" lon="6.969663">
<ele>215</ele>
<time>2010-01-01T01:44:25.000Z</time>
</trkpt>
<trkpt lat="50.514717" lon="6.969708">
<ele>214</ele>
<time>2010-01-01T01:44:28.000Z</time>
</trkpt>
<trkpt lat="50.514579" lon="6.96987">
<ele>212</ele>
<time>2010-01-01T01:44:35.000Z</time>
</trkpt>
<trkpt lat="50.514434" lon="6.969949">
<ele>213</ele>
<time>2010-01-01T01:44:41.000Z</time>
</trkpt>
<trkpt lat="50.514388" lon="6.970024">
<ele>213</ele>
<time>2010-01-01T01:44:44.000Z</time>
</trkpt>
<trkpt lat="50.514335" lon="6.970077">
<ele>213</ele>
<time>2010-01-01T01:44:47.000Z</time>
</trkpt>
<trkpt lat="50.514267" lon="6.970128">
<ele>213</ele>
<time>2010-01-01T01:44:50.000Z</time>
</trkpt>
<trkpt lat="50.514205" lon="6.970143">
<ele>214</ele>
<time>2010-01-01T01:44:52.000Z</time>
</trkpt>
<trkpt lat="50.514148" lon="6.970135">
<ele>215</ele>
<time>2010-01-01T01:44:54.000Z</time>
</trkpt>
<trkpt lat="50.514084" lon="6.97019">
<ele>215</ele>
<time>2010-01-01T01:44:57.000Z</time>
</trkpt>
<trkpt lat="50.514033" lon="6.970402">
<ele>213</ele>
<time>2010-01-01T01:45:03.000Z</time>
</trkpt>
<trkpt lat="50.513987" lon="6.970479">
<ele>213</ele>
<time>2010-01-01T01:45:06.000Z</time>
</trkpt>
<trkpt lat="50.513987" lon="6.970523">
<ele>213</ele>
<time>2010-01-01T01:45:07.000Z</time>
</trkpt>
<trkpt lat="50.513957" lon="6.970554">
<ele>213</ele>
<time>2010-01-01T01:45:08.000Z</time>
</trkpt>
<trkpt lat="50.513939" lon="6.9707">
<ele>211</ele>
<time>2010-01-01T01:45:12.000Z</time>
</trkpt>
<trkpt lat="50.513926" lon="6.97071">
<ele>211</ele>
<time>2010-01-01T01:45:13.000Z</time>
</trkpt>
<trkpt lat="50.513969" lon="6.971246">
<ele>206</ele>
<time>2010-01-01T01:45:26.000Z</time>
</trkpt>
<trkpt lat="50.513969" lon="6.971474">
<ele>205</ele>
<time>2010-01-01T01:45:32.000Z</time>
</trkpt>
<trkpt lat="50.513912" lon="6.971685">
<ele>203</ele>
<time>2010-01-01T01:45:38.000Z</time>
</trkpt>
<trkpt lat="50.513779" lon="6.971868">
<ele>204</ele>
<time>2010-01-01T01:45:45.000Z</time>
</trkpt>
<trkpt lat="50.513752" lon="6.971858">
<ele>204</ele>
<time>2010-01-01T01:45:46.000Z</time>
</trkpt>
<trkpt lat="50.513698" lon="6.971934">
<ele>204</ele>
<time>2010-01-01T01:45:49.000Z</time>
</trkpt>
<trkpt lat="50.513474" lon="6.972109">
<ele>201</ele>
<time>2010-01-01T01:45:59.000Z</time>
</trkpt>
<trkpt lat="50.513294" lon="6.972278">
<ele>198</ele>
<time>2010-01-01T01:46:08.000Z</time>
</trkpt>
<trkpt lat="50.513083" lon="6.972381">
<ele>201</ele>
<time>2010-01-01T01:46:16.000Z</time>
</trkpt>
<trkpt lat="50.512985" lon="6.972384">
<ele>203</ele>
<time>2010-01-01T01:46:20.000Z</time>
</trkpt>
<trkpt lat="50.512908" lon="6.972426">
<ele>203</ele>
<time>2010-01-01T01:46:24.000Z</time>
</trkpt>
<trkpt lat="50.512851" lon="6.972479">
<ele>203</ele>
<time>2010-01-01T01:46:26.000Z</time>
</trkpt>
<trkpt lat="50.512721" lon="6.972705">
<ele>203</ele>
<time>2010-01-01T01:46:34.000Z</time>
</trkpt>
<trkpt lat="50.512672" lon="6.972837">
<ele>202</ele>
<time>2010-01-01T01:46:38.000Z</time>
</trkpt>
<trkpt lat="50.512543" lon="6.97354">
<ele>193</ele>
<time>2010-01-01T01:46:56.000Z</time>
</trkpt>
<trkpt lat="50.512507" lon="6.973666">
<ele>191</ele>
<time>2010-01-01T01:47:00.000Z</time>
</trkpt>
<trkpt lat="50.512486" lon="6.973694">
<ele>191</ele>
<time>2010-01-01T01:47:01.000Z</time>
</trkpt>
<trkpt lat="50.51244" lon="6.97388">
<ele>190</ele>
<time>2010-01-01T01:47:06.000Z</time>
</trkpt>
<trkpt lat="50.512413" lon="6.974076">
<ele>189</ele>
<time>2010-01-01T01:47:11.000Z</time>
</trkpt>
<trkpt lat="50.512347" lon="6.974281">
<ele>188</ele>
<time>2010-01-01T01:47:17.000Z</time>
</trkpt>
<trkpt lat="50.512329" lon="6.974447">
<ele>188</ele>
<time>2010-01-01T01:47:21.000Z</time>
</trkpt>
<trkpt lat="50.512202" lon="6.975012">
<ele>186</ele>
<time>2010-01-01T01:47:37.000Z</time>
</trkpt>
<trkpt lat="50.512134" lon="6.975172">
<ele>185</ele>
<time>2010-01-01T01:47:42.000Z</time>
</trkpt>
<trkpt lat="50.5121" lon="6.975344">
<ele>184</ele>
<time>2010-01-01T01:47:46.000Z</time>
</trkpt>
<trkpt lat="50.512073" lon="6.975396">
<ele>184</ele>
<time>2010-01-01T01:47:48.000Z</time>
</trkpt>
<trkpt lat="50.511925" lon="6.97563">
<ele>181</ele>
<time>2010-01-01T01:47:56.000Z</time>
</trkpt>
<trkpt lat="50.511841" lon="6.975707">
<ele>180</ele>
<time>2010-01-01T01:48:00.000Z</time>
</trkpt>
<trkpt lat="50.511765" lon="6.975805">
<ele>178</ele>
<time>2010-01-01T01:48:04.000Z</time>
</trkpt>
<trkpt lat="50.511593" lon="6.975931">
<ele>176</ele>
<time>2010-01-01T01:48:12.000Z</time>
</trkpt>
<trkpt lat="50.511475" lon="6.975977">
<ele>175</ele>
<time>2010-01-01T01:48:17.000Z</time>
</trkpt>
<trkpt lat="50.51134" lon="6.975996">
<ele>175</ele>
<time>2010-01-01T01:48:22.000Z</time>
</trkpt>
<trkpt lat="50.51115" lon="6.97599">
<ele>175</ele>
<time>2010-01-01T01:48:30.000Z</time>
</trkpt>
<trkpt lat="50.511063" lon="6.976024">
<ele>174</ele>
<time>2010-01-01T01:48:33.000Z</time>
</trkpt>
<trkpt lat="50.51094" lon="6.976004">
<ele>174</ele>
<time>2010-01-01T01:48:38.000Z</time>
</trkpt>
<trkpt lat="50.510872" lon="6.975945">
<ele>174</ele>
<time>2010-01-01T01:48:41.000Z</time>
</trkpt>
<trkpt lat="50.510734" lon="6.975875">
<ele>174</ele>
<time>2010-01-01T01:48:47.000Z</time>
</trkpt>
<trkpt lat="50.510676" lon="6.975791">
<ele>175</ele>
<time>2010-01-01T01:48:50.000Z</time>
</trkpt>
<trkpt lat="50.51067" lon="6.975857">
<ele>175</ele>
<time>2010-01-01T01:48:52.000Z</time>
</trkpt>
<trkpt lat="50.510604" lon="6.97578">
<ele>175</ele>
<time>2010-01-01T01:48:55.000Z</time>
</trkpt>
<trkpt lat="50.510559" lon="6.975669">
<ele>176</ele>
<time>2010-01-01T01:48:58.000Z</time>
</trkpt>
<trkpt lat="50.510539" lon="6.975577">
<ele>176</ele>
<time>2010-01-01T01:49:01.000Z</time>
</trkpt>
<trkpt lat="50.510581" lon="6.975328">
<ele>177</ele>
<time>2010-01-01T01:49:07.000Z</time>
</trkpt>
<trkpt lat="50.510616" lon="6.974771">
<ele>178</ele>
<time>2010-01-01T01:49:22.000Z</time>
</trkpt>
<trkpt lat="50.510689" lon="6.974475">
<ele>178</ele>
<time>2010-01-01T01:49:30.000Z</time>
</trkpt>
<trkpt lat="50.510689" lon="6.974322">
<ele>179</ele>
<time>2010-01-01T01:49:34.000Z</time>
</trkpt>
<trkpt lat="50.510711" lon="6.974256">
<ele>179</ele>
<time>2010-01-01T01:49:36.000Z</time>
</trkpt>
<trkpt lat="50.510707" lon="6.97381">
<ele>178</ele>
<time>2010-01-01T01:49:47.000Z</time>
</trkpt>
<trkpt lat="50.510685" lon="6.973698">
<ele>178</ele>
<time>2010-01-01T01:49:50.000Z</time>
</trkpt>
<trkpt lat="50.510764" lon="6.9733">
<ele>177</ele>
<time>2010-01-01T01:50:01.000Z</time>
</trkpt>
<trkpt lat="50.510742" lon="6.973243">
<ele>177</ele>
<time>2010-01-01T01:50:02.000Z</time>
</trkpt>
<trkpt lat="50.510529" lon="6.972951">
<ele>177</ele>
<time>2010-01-01T01:50:14.000Z</time>
</trkpt>
<trkpt lat="50.510302" lon="6.972607">
<ele>176</ele>
<time>2010-01-01T01:50:26.000Z</time>
</trkpt>
<trkpt lat="50.510276" lon="6.972604">
<ele>176</ele>
<time>2010-01-01T01:50:27.000Z</time>
</trkpt>
<trkpt lat="50.510143" lon="6.972735">
<ele>176</ele>
<time>2010-01-01T01:50:34.000Z</time>
</trkpt>
<trkpt lat="50.509986" lon="6.972681">
<ele>176</ele>
<time>2010-01-01T01:50:40.000Z</time>
</trkpt>
<trkpt lat="50.509811" lon="6.972696">
<ele>177</ele>
<time>2010-01-01T01:50:47.000Z</time>
</trkpt>
<trkpt lat="50.509721" lon="6.972831">
<ele>177</ele>
<time>2010-01-01T01:50:52.000Z</time>
</trkpt>
<trkpt lat="50.509646" lon="6.972936">
<ele>178</ele>
<time>2010-01-01T01:50:56.000Z</time>
</trkpt>
<trkpt lat="50.509587" lon="6.973032">
<ele>178</ele>
<time>2010-01-01T01:50:59.000Z</time>
</trkpt>
<trkpt lat="50.509503" lon="6.973078">
<ele>179</ele>
<time>2010-01-01T01:51:03.000Z</time>
</trkpt>
</trkseg>
</trk>
</gpx>
